<?xml version='1.0' encoding='UTF-8'?><gpx version="1.1" creator="JPX - https://github.com/jenetics/jpx" xmlns="http://www.topografix.com/GPX/1/1"><trk><trkseg><trkpt lat="43.721220893553344" lon="10.953619660785279"><ele>29.0</ele><time>2026-04-28T07:44:44Z</time></trkpt><trkpt lat="43.72117194010551" lon="10.953678869799527"><ele>29.0</ele><time>2026-04-28T07:48:51Z</time></trkpt><trkpt lat="43.72129892803458" lon="10.953621234801481"><ele>29.0</ele><time>2026-04-28T07:50:15.001Z</time></trkpt><trkpt lat="43.72128827904892" lon="10.95344175907765"><ele>29.0</ele><time>2026-04-28T07:50:19.001Z</time></trkpt><trkpt lat="43.721271731648145" lon="10.953319926099816"><ele>29.0</ele><time>2026-04-28T07:50:20.001Z</time></trkpt><trkpt lat="43.72126230816547" lon="10.953227934575159"><ele>28.999999999999996</ele><time>2026-04-28T07:50:21.001Z</time></trkpt><trkpt lat="43.721243049460995" lon="10.953112372359787"><ele>29.0</ele><time>2026-04-28T07:50:23.001Z</time></trkpt><trkpt lat="43.72120800631677" lon="10.95302604030833"><ele>29.0</ele><time>2026-04-28T07:50:26Z</time></trkpt><trkpt lat="43.72109427695225" lon="10.952991005211384"><ele>29.0</ele><time>2026-04-28T07:50:29Z</time></trkpt><trkpt lat="43.721019667929625" lon="10.95302156967209"><ele>28.999999999999996</ele><time>2026-04-28T07:50:30Z</time></trkpt><trkpt lat="43.720938775513716" lon="10.953069548676694"><ele>29.0</ele><time>2026-04-28T07:50:31Z</time></trkpt><trkpt lat="43.72086515694358" lon="10.95309109225174"><ele>28.999999999999996</ele><time>2026-04-28T07:50:32Z</time></trkpt><trkpt lat="43.72079350245204" lon="10.953107252797636"><ele>29.0</ele><time>2026-04-28T07:50:33Z</time></trkpt><trkpt lat="43.720727470085286" lon="10.953097757912646"><ele>29.0</ele><time>2026-04-28T07:50:34Z</time></trkpt><trkpt lat="43.72066229755622" lon="10.953052720267891"><ele>29.0</ele><time>2026-04-28T07:50:35Z</time></trkpt><trkpt lat="43.72055335525444" lon="10.952984253822446"><ele>28.999999999999996</ele><time>2026-04-28T07:50:37Z</time></trkpt><trkpt lat="43.72049677645419" lon="10.952889114413653"><ele>29.0</ele><time>2026-04-28T07:50:39Z</time></trkpt><trkpt lat="43.72048489396843" lon="10.95274057431464"><ele>29.0</ele><time>2026-04-28T07:50:41Z</time></trkpt><trkpt lat="43.72048436349572" lon="10.952619218696404"><ele>29.0</ele><time>2026-04-28T07:50:43Z</time></trkpt><trkpt lat="43.72048359889735" lon="10.95250184958601"><ele>29.0</ele><time>2026-04-28T07:50:45Z</time></trkpt><trkpt lat="43.72051947416337" lon="10.952393155816832"><ele>29.0</ele><time>2026-04-28T07:50:47Z</time></trkpt><trkpt lat="43.720623520083805" lon="10.95234649228633"><ele>29.0</ele><time>2026-04-28T07:50:49Z</time></trkpt><trkpt lat="43.72071819840985" lon="10.952339768433728"><ele>28.833333333333332</ele><time>2026-04-28T07:50:51Z</time></trkpt><trkpt lat="43.72081570933753" lon="10.95232510412393"><ele>28.666666666666664</ele><time>2026-04-28T07:50:53Z</time></trkpt><trkpt lat="43.720934204670286" lon="10.952303026196601"><ele>28.5</ele><time>2026-04-28T07:50:55Z</time></trkpt><trkpt lat="43.72099802262805" lon="10.952288742885603"><ele>28.333333333333336</ele><time>2026-04-28T07:50:56Z</time></trkpt><trkpt lat="43.72106879962548" lon="10.95227168255453"><ele>28.166666666666668</ele><time>2026-04-28T07:50:57Z</time></trkpt><trkpt lat="43.72114894902492" lon="10.95225760986064"><ele>28.0</ele><time>2026-04-28T07:50:58Z</time></trkpt><trkpt lat="43.72121598783825" lon="10.952242544096421"><ele>27.833333333333336</ele><time>2026-04-28T07:50:59Z</time></trkpt><trkpt lat="43.72128351216591" lon="10.952232039597567"><ele>27.666666666666668</ele><time>2026-04-28T07:51:00Z</time></trkpt><trkpt lat="43.72135303248105" lon="10.952220033056598"><ele>27.5</ele><time>2026-04-28T07:51:01Z</time></trkpt><trkpt lat="43.72142403223925" lon="10.952206249146021"><ele>27.333333333333336</ele><time>2026-04-28T07:51:02Z</time></trkpt><trkpt lat="43.721493501310434" lon="10.952193506560373"><ele>27.166666666666668</ele><time>2026-04-28T07:51:03Z</time></trkpt><trkpt lat="43.72160683039687" lon="10.952175937705972"><ele>27.0</ele><time>2026-04-28T07:51:05Z</time></trkpt><trkpt lat="43.72168421977501" lon="10.952173325671781"><ele>27.0</ele><time>2026-04-28T07:51:07Z</time></trkpt><trkpt lat="43.72175525941135" lon="10.952148833287916"><ele>27.0</ele><time>2026-04-28T07:51:10Z</time></trkpt><trkpt lat="43.7218227511547" lon="10.952087783897328"><ele>27.0</ele><time>2026-04-28T07:51:13Z</time></trkpt><trkpt lat="43.72180124939576" lon="10.951948452305768"><ele>27.0</ele><time>2026-04-28T07:51:14Z</time></trkpt><trkpt lat="43.72178871297229" lon="10.951822023072145"><ele>27.0</ele><time>2026-04-28T07:51:15Z</time></trkpt><trkpt lat="43.721778620397764" lon="10.951691947855835"><ele>27.0</ele><time>2026-04-28T07:51:16Z</time></trkpt><trkpt lat="43.72176663203424" lon="10.951580890257874"><ele>27.0</ele><time>2026-04-28T07:51:17Z</time></trkpt><trkpt lat="43.72176015629901" lon="10.951484860473059"><ele>27.0</ele><time>2026-04-28T07:51:18Z</time></trkpt><trkpt lat="43.72175303814565" lon="10.951383682814539"><ele>27.0</ele><time>2026-04-28T07:51:19Z</time></trkpt><trkpt lat="43.721744032787086" lon="10.95128454644796"><ele>27.0</ele><time>2026-04-28T07:51:20Z</time></trkpt><trkpt lat="43.721738627656634" lon="10.951190645392183"><ele>27.0</ele><time>2026-04-28T07:51:21Z</time></trkpt><trkpt lat="43.72172387040599" lon="10.95107229124072"><ele>27.0</ele><time>2026-04-28T07:51:23Z</time></trkpt><trkpt lat="43.72171081030655" lon="10.95098537249172"><ele>27.0</ele><time>2026-04-28T07:51:25Z</time></trkpt><trkpt lat="43.7216972701041" lon="10.950819738303123"><ele>27.0</ele><time>2026-04-28T07:51:27Z</time></trkpt><trkpt lat="43.72168176216765" lon="10.950711354521632"><ele>27.0</ele><time>2026-04-28T07:51:28Z</time></trkpt><trkpt lat="43.72168413577242" lon="10.950588625982562"><ele>27.0</ele><time>2026-04-28T07:51:29Z</time></trkpt><trkpt lat="43.72167129432164" lon="10.950475398847647"><ele>27.0</ele><time>2026-04-28T07:51:30Z</time></trkpt><trkpt lat="43.721658616306506" lon="10.950364732397183"><ele>27.0</ele><time>2026-04-28T07:51:31Z</time></trkpt><trkpt lat="43.721634928249046" lon="10.950250090098212"><ele>27.0</ele><time>2026-04-28T07:51:32Z</time></trkpt><trkpt lat="43.721616910241735" lon="10.950131875513822"><ele>27.0</ele><time>2026-04-28T07:51:33Z</time></trkpt><trkpt lat="43.72160724381006" lon="10.950018792892857"><ele>27.0</ele><time>2026-04-28T07:51:34Z</time></trkpt><trkpt lat="43.721596097633224" lon="10.949914710826052"><ele>27.0</ele><time>2026-04-28T07:51:35Z</time></trkpt><trkpt lat="43.72158513134802" lon="10.949813195736084"><ele>27.0</ele><time>2026-04-28T07:51:36Z</time></trkpt><trkpt lat="43.72156966086546" lon="10.949707462433532"><ele>27.0</ele><time>2026-04-28T07:51:37Z</time></trkpt><trkpt lat="43.7215607727279" lon="10.949574253182014"><ele>27.0</ele><time>2026-04-28T07:51:38Z</time></trkpt><trkpt lat="43.721548596898735" lon="10.94944978036845"><ele>27.0</ele><time>2026-04-28T07:51:39Z</time></trkpt><trkpt lat="43.72153904725006" lon="10.94935807181711"><ele>27.000000000000004</ele><time>2026-04-28T07:51:40Z</time></trkpt><trkpt lat="43.72152695087556" lon="10.949210974492704"><ele>27.000000000000004</ele><time>2026-04-28T07:51:42Z</time></trkpt><trkpt lat="43.721520985649356" lon="10.949075372403172"><ele>27.0</ele><time>2026-04-28T07:51:44Z</time></trkpt><trkpt lat="43.721508603678764" lon="10.948936207727893"><ele>27.0</ele><time>2026-04-28T07:51:46.001Z</time></trkpt><trkpt lat="43.72161889399225" lon="10.94881923056311"><ele>27.333333333333332</ele><time>2026-04-28T07:51:48.001Z</time></trkpt><trkpt lat="43.72168133867572" lon="10.948777171535966"><ele>27.666666666666664</ele><time>2026-04-28T07:51:49.001Z</time></trkpt><trkpt lat="43.72173740619196" lon="10.948732899128897"><ele>28.0</ele><time>2026-04-28T07:51:50.001Z</time></trkpt><trkpt lat="43.72182273670178" lon="10.948646428295184"><ele>28.333333333333332</ele><time>2026-04-28T07:51:52.001Z</time></trkpt><trkpt lat="43.721890287251384" lon="10.948562925999804"><ele>28.666666666666664</ele><time>2026-04-28T07:54:11.001Z</time></trkpt><trkpt lat="43.721940261501864" lon="10.948468305615034"><ele>29.0</ele><time>2026-04-28T07:54:13.001Z</time></trkpt><trkpt lat="43.722037967820604" lon="10.94836940913709"><ele>29.2</ele><time>2026-04-28T07:54:15.001Z</time></trkpt><trkpt lat="43.722077725092944" lon="10.9482967306146"><ele>29.4</ele><time>2026-04-28T07:54:16.001Z</time></trkpt><trkpt lat="43.722131297989435" lon="10.948239585904188"><ele>29.6</ele><time>2026-04-28T07:54:17.001Z</time></trkpt><trkpt lat="43.72222540187218" lon="10.948140440499072"><ele>29.8</ele><time>2026-04-28T07:54:19.001Z</time></trkpt><trkpt lat="43.72231680303516" lon="10.948059155492157"><ele>30.0</ele><time>2026-04-28T07:54:21.001Z</time></trkpt><trkpt lat="43.72238575537045" lon="10.947976218888407"><ele>30.0</ele><time>2026-04-28T07:54:23.001Z</time></trkpt><trkpt lat="43.72246890781681" lon="10.94788243731667"><ele>30.0</ele><time>2026-04-28T07:54:25.001Z</time></trkpt><trkpt lat="43.72256527349086" lon="10.94788147268808"><ele>30.0</ele><time>2026-04-28T07:54:26.001Z</time></trkpt><trkpt lat="43.7226471551797" lon="10.947805271080043"><ele>30.0</ele><time>2026-04-28T07:54:27.001Z</time></trkpt><trkpt lat="43.722701686498354" lon="10.94770582363567"><ele>30.0</ele><time>2026-04-28T07:54:28.001Z</time></trkpt><trkpt lat="43.72273362040431" lon="10.947554805231958"><ele>29.75</ele><time>2026-04-28T07:54:29.001Z</time></trkpt><trkpt lat="43.72281943619117" lon="10.947471612985437"><ele>29.5</ele><time>2026-04-28T07:54:30.001Z</time></trkpt><trkpt lat="43.72291755720922" lon="10.947382466064413"><ele>29.25</ele><time>2026-04-28T07:54:31.001Z</time></trkpt><trkpt lat="43.72301933084097" lon="10.947283719581678"><ele>29.0</ele><time>2026-04-28T07:54:32.001Z</time></trkpt><trkpt lat="43.7231037037522" lon="10.947196545893128"><ele>28.999999999999996</ele><time>2026-04-28T07:54:33.001Z</time></trkpt><trkpt lat="43.723169868988705" lon="10.947105882147415"><ele>29.0</ele><time>2026-04-28T07:54:34.001Z</time></trkpt><trkpt lat="43.72323092799793" lon="10.947044993554849"><ele>29.0</ele><time>2026-04-28T07:54:35.001Z</time></trkpt><trkpt lat="43.723323739511265" lon="10.946951197856578"><ele>29.0</ele><time>2026-04-28T07:54:37.001Z</time></trkpt><trkpt lat="43.72338800627416" lon="10.946871886406264"><ele>28.999999999999996</ele><time>2026-04-28T07:54:38.999Z</time></trkpt><trkpt lat="43.72344703889149" lon="10.94682550202351"><ele>29.0</ele><time>2026-04-28T07:54:40.999Z</time></trkpt><trkpt lat="43.72354926623078" lon="10.94681189495538"><ele>28.499999999999996</ele><time>2026-04-28T07:54:42.999Z</time></trkpt><trkpt lat="43.723612355396924" lon="10.946806564098434"><ele>28.0</ele><time>2026-04-28T07:54:43.999Z</time></trkpt><trkpt lat="43.72372960063645" lon="10.946758623986188"><ele>27.5</ele><time>2026-04-28T07:54:45.999Z</time></trkpt><trkpt lat="43.723778866690985" lon="10.946703920238877"><ele>27.0</ele><time>2026-04-28T07:54:46.999Z</time></trkpt><trkpt lat="43.723823943193175" lon="10.946633023178933"><ele>26.499999999999996</ele><time>2026-04-28T07:54:47.999Z</time></trkpt><trkpt lat="43.72387460238226" lon="10.946541155875465"><ele>26.0</ele><time>2026-04-28T07:54:48.999Z</time></trkpt><trkpt lat="43.72394287512625" lon="10.946445599114988"><ele>25.200000000000003</ele><time>2026-04-28T07:54:49.999Z</time></trkpt><trkpt lat="43.724030009024425" lon="10.946348900562924"><ele>24.400000000000002</ele><time>2026-04-28T07:54:50.999Z</time></trkpt><trkpt lat="43.724127739351054" lon="10.946249704720575"><ele>23.6</ele><time>2026-04-28T07:54:51.999Z</time></trkpt><trkpt lat="43.72420721593076" lon="10.94617345532186"><ele>22.8</ele><time>2026-04-28T07:54:52.999Z</time></trkpt><trkpt lat="43.72427144128509" lon="10.94611153314263"><ele>22.0</ele><time>2026-04-28T07:54:53.999Z</time></trkpt><trkpt lat="43.72433223624553" lon="10.946057621539627"><ele>22.0</ele><time>2026-04-28T07:54:54.999Z</time></trkpt><trkpt lat="43.7243927294509" lon="10.946008009467127"><ele>22.0</ele><time>2026-04-28T07:54:55.999Z</time></trkpt><trkpt lat="43.72450344451077" lon="10.945935858397249"><ele>22.0</ele><time>2026-04-28T07:54:57.999Z</time></trkpt><trkpt lat="43.72457274060232" lon="10.945878679406185"><ele>22.0</ele><time>2026-04-28T07:54:58.999Z</time></trkpt><trkpt lat="43.72463797168501" lon="10.945801133199991"><ele>22.0</ele><time>2026-04-28T07:55:00Z</time></trkpt><trkpt lat="43.724709475286915" lon="10.945727994980658"><ele>22.0</ele><time>2026-04-28T07:55:02Z</time></trkpt><trkpt lat="43.72479644220815" lon="10.945697381895268"><ele>23.200000000000003</ele><time>2026-04-28T07:55:06Z</time></trkpt><trkpt lat="43.72488408857981" lon="10.945642341512999"><ele>24.4</ele><time>2026-04-28T07:55:09Z</time></trkpt><trkpt lat="43.72489578850722" lon="10.945547024496955"><ele>25.599999999999998</ele><time>2026-04-28T07:55:11Z</time></trkpt><trkpt lat="43.724884161618874" lon="10.945454991061498"><ele>26.799999999999997</ele><time>2026-04-28T07:55:14Z</time></trkpt><trkpt lat="43.724965826302316" lon="10.945373889502262"><ele>28.0</ele><time>2026-04-28T07:55:16Z</time></trkpt><trkpt lat="43.72506404854532" lon="10.94528226100163"><ele>28.0</ele><time>2026-04-28T07:55:18Z</time></trkpt><trkpt lat="43.72514379746027" lon="10.945204575831466"><ele>27.999999999999996</ele><time>2026-04-28T07:55:20Z</time></trkpt><trkpt lat="43.7252453323885" lon="10.945097420169208"><ele>27.999999999999996</ele><time>2026-04-28T07:55:22Z</time></trkpt><trkpt lat="43.72529975101737" lon="10.945039337891421"><ele>28.0</ele><time>2026-04-28T07:55:23Z</time></trkpt><trkpt lat="43.72538529861889" lon="10.944924025912526"><ele>28.0</ele><time>2026-04-28T07:55:25Z</time></trkpt><trkpt lat="43.725438412406476" lon="10.944848218796759"><ele>28.000000000000004</ele><time>2026-04-28T07:55:26Z</time></trkpt><trkpt lat="43.725490483009054" lon="10.944759126260793"><ele>28.0</ele><time>2026-04-28T07:55:27Z</time></trkpt><trkpt lat="43.72553400357059" lon="10.944681396228354"><ele>28.0</ele><time>2026-04-28T07:55:28Z</time></trkpt><trkpt lat="43.72557173208135" lon="10.944604540638556"><ele>28.0</ele><time>2026-04-28T07:55:29Z</time></trkpt><trkpt lat="43.725625286577205" lon="10.944470439715221"><ele>28.000000000000004</ele><time>2026-04-28T07:55:31Z</time></trkpt><trkpt lat="43.725669702162804" lon="10.944326938935657"><ele>28.0</ele><time>2026-04-28T07:55:33Z</time></trkpt><trkpt lat="43.72571611810837" lon="10.944160623318334"><ele>27.833333333333336</ele><time>2026-04-28T07:55:35Z</time></trkpt><trkpt lat="43.72574633387704" lon="10.944055481464943"><ele>27.666666666666668</ele><time>2026-04-28T07:55:36Z</time></trkpt><trkpt lat="43.72578294795363" lon="10.943938255911554"><ele>27.5</ele><time>2026-04-28T07:55:37Z</time></trkpt><trkpt lat="43.725815798368856" lon="10.94383442961768"><ele>27.333333333333336</ele><time>2026-04-28T07:55:38Z</time></trkpt><trkpt lat="43.72584532694038" lon="10.943738910832366"><ele>27.166666666666668</ele><time>2026-04-28T07:55:39Z</time></trkpt><trkpt lat="43.72587415917304" lon="10.943648673569527"><ele>27.0</ele><time>2026-04-28T07:55:40Z</time></trkpt><trkpt lat="43.72590123557907" lon="10.943564891807998"><ele>27.0</ele><time>2026-04-28T07:55:41Z</time></trkpt><trkpt lat="43.7259443336384" lon="10.943431656362943"><ele>27.0</ele><time>2026-04-28T07:55:43Z</time></trkpt><trkpt lat="43.72597391649877" lon="10.943340127684133"><ele>27.0</ele><time>2026-04-28T07:55:45Z</time></trkpt><trkpt lat="43.72601055320416" lon="10.943264259423337"><ele>27.0</ele><time>2026-04-28T07:55:47Z</time></trkpt><trkpt lat="43.72606598341011" lon="10.943166866326875"><ele>27.0</ele><time>2026-04-28T07:55:49Z</time></trkpt><trkpt lat="43.7261124012097" lon="10.943035271057264"><ele>27.0</ele><time>2026-04-28T07:55:51Z</time></trkpt><trkpt lat="43.72612665448415" lon="10.942945014271752"><ele>27.0</ele><time>2026-04-28T07:55:52Z</time></trkpt><trkpt lat="43.72614013357374" lon="10.942859525523954"><ele>27.0</ele><time>2026-04-28T07:55:53Z</time></trkpt><trkpt lat="43.726161183096664" lon="10.942762256756748"><ele>27.0</ele><time>2026-04-28T07:55:54Z</time></trkpt><trkpt lat="43.72619337357452" lon="10.942645576681906"><ele>27.0</ele><time>2026-04-28T07:55:55Z</time></trkpt><trkpt lat="43.726235148164896" lon="10.942512608093693"><ele>27.0</ele><time>2026-04-28T07:55:56Z</time></trkpt><trkpt lat="43.72627814711205" lon="10.942378932328307"><ele>27.0</ele><time>2026-04-28T07:55:57Z</time></trkpt><trkpt lat="43.726324002308516" lon="10.942233791349578"><ele>27.0</ele><time>2026-04-28T07:55:58Z</time></trkpt><trkpt lat="43.72637102953099" lon="10.942082503675776"><ele>27.000000000000004</ele><time>2026-04-28T07:55:59Z</time></trkpt><trkpt lat="43.726415379255634" lon="10.941936613482923"><ele>27.000000000000004</ele><time>2026-04-28T07:56:00Z</time></trkpt><trkpt lat="43.72645230322817" lon="10.941808313550673"><ele>27.0</ele><time>2026-04-28T07:56:01Z</time></trkpt><trkpt lat="43.726481126386375" lon="10.941706503664218"><ele>27.0</ele><time>2026-04-28T07:56:02Z</time></trkpt><trkpt lat="43.726508523139316" lon="10.941615195681601"><ele>26.8</ele><time>2026-04-28T07:56:03Z</time></trkpt><trkpt lat="43.72654414429797" lon="10.941499953736619"><ele>26.6</ele><time>2026-04-28T07:56:04Z</time></trkpt><trkpt lat="43.726588167533166" lon="10.941360555411698"><ele>26.400000000000002</ele><time>2026-04-28T07:56:05Z</time></trkpt><trkpt lat="43.72663723527432" lon="10.941207633543517"><ele>26.200000000000003</ele><time>2026-04-28T07:56:06Z</time></trkpt><trkpt lat="43.726685464952475" lon="10.941050302441939"><ele>26.0</ele><time>2026-04-28T07:56:07Z</time></trkpt><trkpt lat="43.726734166364565" lon="10.940897193023225"><ele>25.75</ele><time>2026-04-28T07:56:08Z</time></trkpt><trkpt lat="43.726774635291136" lon="10.940752823424653"><ele>25.5</ele><time>2026-04-28T07:56:09Z</time></trkpt><trkpt lat="43.72681706778477" lon="10.940601341129138"><ele>25.25</ele><time>2026-04-28T07:56:10Z</time></trkpt><trkpt lat="43.72686599222185" lon="10.94043614595964"><ele>25.0</ele><time>2026-04-28T07:56:11Z</time></trkpt><trkpt lat="43.72691506734922" lon="10.940276691615741"><ele>25.2</ele><time>2026-04-28T07:56:12Z</time></trkpt><trkpt lat="43.72695769401665" lon="10.940133857648421"><ele>25.4</ele><time>2026-04-28T07:56:13Z</time></trkpt><trkpt lat="43.7269942246135" lon="10.940014968044952"><ele>25.6</ele><time>2026-04-28T07:56:14Z</time></trkpt><trkpt lat="43.72703350877296" lon="10.939904721666995"><ele>25.8</ele><time>2026-04-28T07:56:15.001Z</time></trkpt><trkpt lat="43.72707720989585" lon="10.939780040638498"><ele>26.0</ele><time>2026-04-28T07:56:16.001Z</time></trkpt><trkpt lat="43.72712346179908" lon="10.939620913328412"><ele>26.0</ele><time>2026-04-28T07:56:17.001Z</time></trkpt><trkpt lat="43.72716980532687" lon="10.939451342291092"><ele>26.0</ele><time>2026-04-28T07:56:18.001Z</time></trkpt><trkpt lat="43.72721665217512" lon="10.939287164040165"><ele>26.0</ele><time>2026-04-28T07:56:19.001Z</time></trkpt><trkpt lat="43.727259557650456" lon="10.939147564503955"><ele>26.0</ele><time>2026-04-28T07:56:20.001Z</time></trkpt><trkpt lat="43.72729692893096" lon="10.939024777093653"><ele>25.999999999999996</ele><time>2026-04-28T07:56:21.001Z</time></trkpt><trkpt lat="43.72732814590741" lon="10.938906512166048"><ele>26.0</ele><time>2026-04-28T07:56:22.001Z</time></trkpt><trkpt lat="43.72735824170328" lon="10.938809227144032"><ele>26.0</ele><time>2026-04-28T07:56:23.001Z</time></trkpt><trkpt lat="43.72739938405203" lon="10.938688214898775"><ele>26.0</ele><time>2026-04-28T07:56:25.001Z</time></trkpt><trkpt lat="43.72743266210704" lon="10.938599109386839"><ele>25.999999999999996</ele><time>2026-04-28T07:56:27.001Z</time></trkpt><trkpt lat="43.72748170056272" lon="10.938528223316187"><ele>26.0</ele><time>2026-04-28T07:56:30.001Z</time></trkpt><trkpt lat="43.72758162941488" lon="10.938414470917323"><ele>26.0</ele><time>2026-04-28T07:56:32.001Z</time></trkpt><trkpt lat="43.72763274580267" lon="10.93830622698254"><ele>26.0</ele><time>2026-04-28T07:56:33.001Z</time></trkpt><trkpt lat="43.72765575783447" lon="10.93818928456482"><ele>26.0</ele><time>2026-04-28T07:56:34.001Z</time></trkpt><trkpt lat="43.727655696991405" lon="10.938053631782735"><ele>26.0</ele><time>2026-04-28T07:56:35.001Z</time></trkpt><trkpt lat="43.72764856105426" lon="10.937904974756039"><ele>26.0</ele><time>2026-04-28T07:56:36.001Z</time></trkpt><trkpt lat="43.727664865400065" lon="10.93776616301594"><ele>26.0</ele><time>2026-04-28T07:56:37.001Z</time></trkpt><trkpt lat="43.72770914259966" lon="10.937619573503804"><ele>26.0</ele><time>2026-04-28T07:56:38.001Z</time></trkpt><trkpt lat="43.72776218335873" lon="10.937471489879368"><ele>26.0</ele><time>2026-04-28T07:56:39.001Z</time></trkpt><trkpt lat="43.727810595241976" lon="10.937328957905098"><ele>26.0</ele><time>2026-04-28T07:56:40.001Z</time></trkpt><trkpt lat="43.72785525706968" lon="10.937202951642085"><ele>26.0</ele><time>2026-04-28T07:56:41.001Z</time></trkpt><trkpt lat="43.727900620288025" lon="10.937067411455235"><ele>26.4</ele><time>2026-04-28T07:56:42.001Z</time></trkpt><trkpt lat="43.72795051405363" lon="10.936908208088484"><ele>26.8</ele><time>2026-04-28T07:56:43.001Z</time></trkpt><trkpt lat="43.727998534741936" lon="10.936757800258398"><ele>27.199999999999996</ele><time>2026-04-28T07:56:43.999Z</time></trkpt><trkpt lat="43.72803774617959" lon="10.93662979655975"><ele>27.599999999999998</ele><time>2026-04-28T07:56:44.999Z</time></trkpt><trkpt lat="43.72807411847308" lon="10.936511299442556"><ele>28.0</ele><time>2026-04-28T07:56:45.999Z</time></trkpt><trkpt lat="43.72810999872385" lon="10.9363927046653"><ele>28.0</ele><time>2026-04-28T07:56:46.999Z</time></trkpt><trkpt lat="43.72815590794128" lon="10.936263154637416"><ele>28.0</ele><time>2026-04-28T07:56:47.999Z</time></trkpt><trkpt lat="43.72820659876032" lon="10.936118659036259"><ele>28.0</ele><time>2026-04-28T07:56:48.999Z</time></trkpt><trkpt lat="43.72825691839849" lon="10.935958896930584"><ele>28.0</ele><time>2026-04-28T07:56:49.999Z</time></trkpt><trkpt lat="43.72830297077391" lon="10.935800847589146"><ele>28.0</ele><time>2026-04-28T07:56:50.999Z</time></trkpt><trkpt lat="43.72834013791206" lon="10.93566868426794"><ele>27.999999999999996</ele><time>2026-04-28T07:56:51.999Z</time></trkpt><trkpt lat="43.72837693952425" lon="10.93553733771922"><ele>27.999999999999996</ele><time>2026-04-28T07:56:52.999Z</time></trkpt><trkpt lat="43.72841901721783" lon="10.935384778480495"><ele>28.0</ele><time>2026-04-28T07:56:53.999Z</time></trkpt><trkpt lat="43.72845860871509" lon="10.935224749636408"><ele>28.0</ele><time>2026-04-28T07:56:54.999Z</time></trkpt><trkpt lat="43.72849597540946" lon="10.935086447466015"><ele>28.285714285714285</ele><time>2026-04-28T07:56:55.999Z</time></trkpt><trkpt lat="43.72853087111227" lon="10.93498387306731"><ele>28.57142857142857</ele><time>2026-04-28T07:56:56.999Z</time></trkpt><trkpt lat="43.728557988534625" lon="10.934900473168007"><ele>28.857142857142858</ele><time>2026-04-28T07:56:57.999Z</time></trkpt><trkpt lat="43.72858266631722" lon="10.934807247694632"><ele>29.142857142857142</ele><time>2026-04-28T07:56:58.999Z</time></trkpt><trkpt lat="43.728600063998954" lon="10.934716521780885"><ele>29.428571428571427</ele><time>2026-04-28T07:56:59.999Z</time></trkpt><trkpt lat="43.728611098941066" lon="10.934625375287979"><ele>29.714285714285715</ele><time>2026-04-28T07:57:01Z</time></trkpt><trkpt lat="43.728621792466114" lon="10.93453817838995"><ele>30.0</ele><time>2026-04-28T07:57:02Z</time></trkpt><trkpt lat="43.728642726296926" lon="10.934437013484674"><ele>30.0</ele><time>2026-04-28T07:57:03Z</time></trkpt><trkpt lat="43.7286795547238" lon="10.934335252655758"><ele>30.0</ele><time>2026-04-28T07:57:04Z</time></trkpt><trkpt lat="43.72872301164795" lon="10.934181825531455"><ele>30.0</ele><time>2026-04-28T07:57:05Z</time></trkpt><trkpt lat="43.72875948585952" lon="10.934057283329716"><ele>30.0</ele><time>2026-04-28T07:57:06Z</time></trkpt><trkpt lat="43.728786966179115" lon="10.933961963474855"><ele>30.0</ele><time>2026-04-28T07:57:07Z</time></trkpt><trkpt lat="43.728813649974995" lon="10.933872599509122"><ele>30.0</ele><time>2026-04-28T07:57:08Z</time></trkpt><trkpt lat="43.72884156311116" lon="10.933784297319646"><ele>29.6</ele><time>2026-04-28T07:57:09Z</time></trkpt><trkpt lat="43.728866736082196" lon="10.933689243843961"><ele>29.2</ele><time>2026-04-28T07:57:10Z</time></trkpt><trkpt lat="43.72889606484605" lon="10.93359447101034"><ele>28.799999999999997</ele><time>2026-04-28T07:57:11Z</time></trkpt><trkpt lat="43.728940269210476" lon="10.933438601002198"><ele>28.4</ele><time>2026-04-28T07:57:13Z</time></trkpt><trkpt lat="43.72898333830374" lon="10.93326815484235"><ele>28.0</ele><time>2026-04-28T07:57:15Z</time></trkpt><trkpt lat="43.729005098707056" lon="10.933183057089675"><ele>27.799999999999997</ele><time>2026-04-28T07:57:16Z</time></trkpt><trkpt lat="43.72903953439075" lon="10.933035853254026"><ele>27.599999999999998</ele><time>2026-04-28T07:57:18Z</time></trkpt><trkpt lat="43.729077917395486" lon="10.932867728986128"><ele>27.400000000000002</ele><time>2026-04-28T07:57:20Z</time></trkpt><trkpt lat="43.72910295624547" lon="10.932767598997202"><ele>27.200000000000003</ele><time>2026-04-28T07:57:21Z</time></trkpt><trkpt lat="43.72912533485186" lon="10.932676136335177"><ele>27.0</ele><time>2026-04-28T07:57:22Z</time></trkpt><trkpt lat="43.729158112403866" lon="10.932527344810278"><ele>27.0</ele><time>2026-04-28T07:57:24Z</time></trkpt><trkpt lat="43.72919924144312" lon="10.93235767058945"><ele>27.0</ele><time>2026-04-28T07:57:26Z</time></trkpt><trkpt lat="43.729237616936054" lon="10.932215514183284"><ele>27.0</ele><time>2026-04-28T07:57:28Z</time></trkpt><trkpt lat="43.7293110953958" lon="10.932064351332745"><ele>27.0</ele><time>2026-04-28T07:57:30Z</time></trkpt><trkpt lat="43.72938993619555" lon="10.931952554283898"><ele>27.0</ele><time>2026-04-28T07:57:32Z</time></trkpt><trkpt lat="43.72942751149229" lon="10.931881079349182"><ele>27.0</ele><time>2026-04-28T07:57:33Z</time></trkpt><trkpt lat="43.729467436210705" lon="10.931729141264384"><ele>27.0</ele><time>2026-04-28T07:57:35Z</time></trkpt><trkpt lat="43.72943517327972" lon="10.931644002594174"><ele>27.0</ele><time>2026-04-28T07:57:36Z</time></trkpt><trkpt lat="43.729405701759454" lon="10.931562798705347"><ele>27.0</ele><time>2026-04-28T07:57:37Z</time></trkpt><trkpt lat="43.72936858940028" lon="10.93140319414543"><ele>27.0</ele><time>2026-04-28T07:57:39Z</time></trkpt><trkpt lat="43.729364389567074" lon="10.931304147350945"><ele>27.0</ele><time>2026-04-28T07:57:40Z</time></trkpt><trkpt lat="43.729370770771645" lon="10.931195187958995"><ele>27.0</ele><time>2026-04-28T07:57:41Z</time></trkpt><trkpt lat="43.72938397564063" lon="10.931105753643596"><ele>27.0</ele><time>2026-04-28T07:57:42Z</time></trkpt><trkpt lat="43.72940221368629" lon="10.9310139980228"><ele>27.0</ele><time>2026-04-28T07:57:43Z</time></trkpt><trkpt lat="43.72941956152493" lon="10.930909262233813"><ele>27.0</ele><time>2026-04-28T07:57:44Z</time></trkpt><trkpt lat="43.729439127577805" lon="10.930804166661925"><ele>27.0</ele><time>2026-04-28T07:57:45Z</time></trkpt><trkpt lat="43.72945526301538" lon="10.930711617054373"><ele>27.0</ele><time>2026-04-28T07:57:46Z</time></trkpt><trkpt lat="43.729486325951655" lon="10.930538776372554"><ele>26.833333333333332</ele><time>2026-04-28T07:57:48Z</time></trkpt><trkpt lat="43.7295058245211" lon="10.930446191455477"><ele>26.666666666666664</ele><time>2026-04-28T07:57:49Z</time></trkpt><trkpt lat="43.72952762718087" lon="10.930343771073995"><ele>26.5</ele><time>2026-04-28T07:57:50Z</time></trkpt><trkpt lat="43.729548538454" lon="10.930229476356091"><ele>26.333333333333332</ele><time>2026-04-28T07:57:51Z</time></trkpt><trkpt lat="43.72956546987617" lon="10.930119700882278"><ele>26.166666666666664</ele><time>2026-04-28T07:57:52Z</time></trkpt><trkpt lat="43.729582626512936" lon="10.930031280916907"><ele>26.0</ele><time>2026-04-28T07:57:53Z</time></trkpt><trkpt lat="43.72960360482581" lon="10.929938061556822"><ele>25.833333333333332</ele><time>2026-04-28T07:57:54Z</time></trkpt><trkpt lat="43.72963136826286" lon="10.929827115143835"><ele>25.666666666666664</ele><time>2026-04-28T07:57:55Z</time></trkpt><trkpt lat="43.72966234595692" lon="10.929717245959704"><ele>25.5</ele><time>2026-04-28T07:57:56Z</time></trkpt><trkpt lat="43.729690002458675" lon="10.929607251769816"><ele>25.333333333333336</ele><time>2026-04-28T07:57:57Z</time></trkpt><trkpt lat="43.729710277049364" lon="10.92949776452827"><ele>25.166666666666668</ele><time>2026-04-28T07:57:58Z</time></trkpt><trkpt lat="43.72972776637955" lon="10.929400022812919"><ele>25.0</ele><time>2026-04-28T07:57:59Z</time></trkpt><trkpt lat="43.72974471677908" lon="10.929301918732161"><ele>25.000000000000004</ele><time>2026-04-28T07:58:00Z</time></trkpt><trkpt lat="43.729763616784645" lon="10.929201304729737"><ele>25.0</ele><time>2026-04-28T07:58:01Z</time></trkpt><trkpt lat="43.72977948398285" lon="10.92911248689583"><ele>25.0</ele><time>2026-04-28T07:58:02.001Z</time></trkpt><trkpt lat="43.72979824699985" lon="10.929025113457461"><ele>25.0</ele><time>2026-04-28T07:58:03.001Z</time></trkpt><trkpt lat="43.72982566487524" lon="10.92891787766152"><ele>25.000000000000004</ele><time>2026-04-28T07:58:04.001Z</time></trkpt><trkpt lat="43.72985267404092" lon="10.928793457546615"><ele>25.0</ele><time>2026-04-28T07:58:05.001Z</time></trkpt><trkpt lat="43.72987269664873" lon="10.928678382226305"><ele>25.0</ele><time>2026-04-28T07:58:06.001Z</time></trkpt><trkpt lat="43.72989628075159" lon="10.928562813700635"><ele>25.0</ele><time>2026-04-28T07:58:07.001Z</time></trkpt><trkpt lat="43.729929687990015" lon="10.928433215942173"><ele>25.0</ele><time>2026-04-28T07:58:08.001Z</time></trkpt><trkpt lat="43.729978748459025" lon="10.928290288909123"><ele>25.0</ele><time>2026-04-28T07:58:09.001Z</time></trkpt><trkpt lat="43.73002067134524" lon="10.928140290436495"><ele>25.0</ele><time>2026-04-28T07:58:10.001Z</time></trkpt><trkpt lat="43.730048334890526" lon="10.927982466238571"><ele>25.2</ele><time>2026-04-28T07:58:11.001Z</time></trkpt><trkpt lat="43.73007538090103" lon="10.927838660869803"><ele>25.4</ele><time>2026-04-28T07:58:12.001Z</time></trkpt><trkpt lat="43.73010500827001" lon="10.927701246797064"><ele>25.6</ele><time>2026-04-28T07:58:13.001Z</time></trkpt><trkpt lat="43.73013351459643" lon="10.92756904173844"><ele>25.8</ele><time>2026-04-28T07:58:14.001Z</time></trkpt><trkpt lat="43.73015686861561" lon="10.927450098780819"><ele>26.0</ele><time>2026-04-28T07:58:15.001Z</time></trkpt><trkpt lat="43.73020194388437" lon="10.927336053283025"><ele>25.8</ele><time>2026-04-28T07:58:16.001Z</time></trkpt><trkpt lat="43.730231159754275" lon="10.927207890670914"><ele>25.6</ele><time>2026-04-28T07:58:17.001Z</time></trkpt><trkpt lat="43.730259649353286" lon="10.927079410641792"><ele>25.4</ele><time>2026-04-28T07:58:18.001Z</time></trkpt><trkpt lat="43.73027298378122" lon="10.926942352931695"><ele>25.2</ele><time>2026-04-28T07:58:19.001Z</time></trkpt><trkpt lat="43.73030627442376" lon="10.926814431201755"><ele>25.0</ele><time>2026-04-28T07:58:20.001Z</time></trkpt><trkpt lat="43.73033474701621" lon="10.926679263115952"><ele>25.0</ele><time>2026-04-28T07:58:21.001Z</time></trkpt><trkpt lat="43.730365233338894" lon="10.926545988405213"><ele>25.0</ele><time>2026-04-28T07:58:22.001Z</time></trkpt><trkpt lat="43.73039467365792" lon="10.92641306969437"><ele>25.0</ele><time>2026-04-28T07:58:23.001Z</time></trkpt><trkpt lat="43.73042624019948" lon="10.926269459596153"><ele>25.0</ele><time>2026-04-28T07:58:24.001Z</time></trkpt><trkpt lat="43.73045980860607" lon="10.926108872336778"><ele>25.0</ele><time>2026-04-28T07:58:25.001Z</time></trkpt><trkpt lat="43.7304944491412" lon="10.92595500838696"><ele>25.0</ele><time>2026-04-28T07:58:26.001Z</time></trkpt><trkpt lat="43.730526520327146" lon="10.925820864143851"><ele>25.0</ele><time>2026-04-28T07:58:27.001Z</time></trkpt><trkpt lat="43.73055779279391" lon="10.925687712024162"><ele>25.0</ele><time>2026-04-28T07:58:28.001Z</time></trkpt><trkpt lat="43.73059089416445" lon="10.925544604375569"><ele>25.0</ele><time>2026-04-28T07:58:29.001Z</time></trkpt><trkpt lat="43.73062726354983" lon="10.92540023215277"><ele>25.0</ele><time>2026-04-28T07:58:30.001Z</time></trkpt><trkpt lat="43.73066468122495" lon="10.92524152470979"><ele>25.0</ele><time>2026-04-28T07:58:31.001Z</time></trkpt><trkpt lat="43.73069902487589" lon="10.925075492117022"><ele>25.0</ele><time>2026-04-28T07:58:32.001Z</time></trkpt><trkpt lat="43.73073415031609" lon="10.924917318908811"><ele>25.0</ele><time>2026-04-28T07:58:33.001Z</time></trkpt><trkpt lat="43.730768164900226" lon="10.924770653463062"><ele>25.0</ele><time>2026-04-28T07:58:34.001Z</time></trkpt><trkpt lat="43.73080084284754" lon="10.924634787407923"><ele>25.0</ele><time>2026-04-28T07:58:35.001Z</time></trkpt><trkpt lat="43.730833049897974" lon="10.924498394984166"><ele>25.0</ele><time>2026-04-28T07:58:36.001Z</time></trkpt><trkpt lat="43.73086371678713" lon="10.924362757949838"><ele>25.0</ele><time>2026-04-28T07:58:37.001Z</time></trkpt><trkpt lat="43.73089819599284" lon="10.924223797757644"><ele>25.0</ele><time>2026-04-28T07:58:38.001Z</time></trkpt><trkpt lat="43.73093032626342" lon="10.924070890736687"><ele>25.0</ele><time>2026-04-28T07:58:39.001Z</time></trkpt><trkpt lat="43.73096615893469" lon="10.923921933287941"><ele>25.4</ele><time>2026-04-28T07:58:40.001Z</time></trkpt><trkpt lat="43.73100482696445" lon="10.923767251565176"><ele>25.8</ele><time>2026-04-28T07:58:41.001Z</time></trkpt><trkpt lat="43.73103820630931" lon="10.923616468961585"><ele>26.200000000000003</ele><time>2026-04-28T07:58:42.001Z</time></trkpt><trkpt lat="43.731069819858924" lon="10.923478523231026"><ele>26.6</ele><time>2026-04-28T07:58:43.001Z</time></trkpt><trkpt lat="43.73110322859269" lon="10.923336598862111"><ele>27.0</ele><time>2026-04-28T07:58:44.001Z</time></trkpt><trkpt lat="43.73113792808602" lon="10.923177070477003"><ele>28.25</ele><time>2026-04-28T07:58:45.001Z</time></trkpt><trkpt lat="43.731171025884414" lon="10.923023418965247"><ele>29.5</ele><time>2026-04-28T07:58:46.001Z</time></trkpt><trkpt lat="43.73120257380374" lon="10.922870468714638"><ele>30.75</ele><time>2026-04-28T07:58:47.001Z</time></trkpt><trkpt lat="43.731233650291564" lon="10.922710567535828"><ele>32.0</ele><time>2026-04-28T07:58:48.001Z</time></trkpt><trkpt lat="43.73126252048087" lon="10.922543196352668"><ele>32.75</ele><time>2026-04-28T07:58:49.001Z</time></trkpt><trkpt lat="43.73128906138385" lon="10.922370718623432"><ele>33.5</ele><time>2026-04-28T07:58:50Z</time></trkpt><trkpt lat="43.73131147263176" lon="10.922198695677066"><ele>34.25</ele><time>2026-04-28T07:58:51Z</time></trkpt><trkpt lat="43.73133035486746" lon="10.92203700147813"><ele>35.0</ele><time>2026-04-28T07:58:52Z</time></trkpt><trkpt lat="43.731347001034905" lon="10.92187976827793"><ele>34.75</ele><time>2026-04-28T07:58:53Z</time></trkpt><trkpt lat="43.73136039951932" lon="10.921722530859466"><ele>34.5</ele><time>2026-04-28T07:58:54Z</time></trkpt><trkpt lat="43.73137339210905" lon="10.921559405989496"><ele>34.25</ele><time>2026-04-28T07:58:55Z</time></trkpt><trkpt lat="43.73138491192563" lon="10.921383553612424"><ele>34.0</ele><time>2026-04-28T07:58:56Z</time></trkpt><trkpt lat="43.73138820828029" lon="10.921212603072373"><ele>34.0</ele><time>2026-04-28T07:58:57Z</time></trkpt><trkpt lat="43.73139736973121" lon="10.921052363155194"><ele>34.0</ele><time>2026-04-28T07:58:58Z</time></trkpt><trkpt lat="43.731399959593034" lon="10.92090406845911"><ele>34.0</ele><time>2026-04-28T07:58:59Z</time></trkpt><trkpt lat="43.7314060088906" lon="10.920756681613737"><ele>34.0</ele><time>2026-04-28T07:59:00Z</time></trkpt><trkpt lat="43.73141016357787" lon="10.920606390152043"><ele>34.0</ele><time>2026-04-28T07:59:01Z</time></trkpt><trkpt lat="43.73141385161261" lon="10.920460247967368"><ele>33.2</ele><time>2026-04-28T07:59:02Z</time></trkpt><trkpt lat="43.73141732672813" lon="10.920321421919837"><ele>32.4</ele><time>2026-04-28T07:59:03Z</time></trkpt><trkpt lat="43.73142125691932" lon="10.920171466416251"><ele>31.6</ele><time>2026-04-28T07:59:04Z</time></trkpt><trkpt lat="43.7314247911062" lon="10.920015322604776"><ele>30.8</ele><time>2026-04-28T07:59:05Z</time></trkpt><trkpt lat="43.7314276627296" lon="10.919853021545165"><ele>30.0</ele><time>2026-04-28T07:59:06Z</time></trkpt><trkpt lat="43.7314311668354" lon="10.919687620976916"><ele>29.8</ele><time>2026-04-28T07:59:07Z</time></trkpt><trkpt lat="43.73143364284803" lon="10.919520964692483"><ele>29.6</ele><time>2026-04-28T07:59:08Z</time></trkpt><trkpt lat="43.73144076665193" lon="10.9193650212862"><ele>29.4</ele><time>2026-04-28T07:59:09Z</time></trkpt><trkpt lat="43.73144213279671" lon="10.919222266200917"><ele>29.2</ele><time>2026-04-28T07:59:10Z</time></trkpt><trkpt lat="43.73144704861315" lon="10.919082049099881"><ele>29.0</ele><time>2026-04-28T07:59:11Z</time></trkpt><trkpt lat="43.731451347556124" lon="10.918924146177627"><ele>28.799999999999997</ele><time>2026-04-28T07:59:12Z</time></trkpt><trkpt lat="43.73145582180024" lon="10.9187663794759"><ele>28.599999999999998</ele><time>2026-04-28T07:59:13Z</time></trkpt><trkpt lat="43.73145932145168" lon="10.918619156215847"><ele>28.4</ele><time>2026-04-28T07:59:14Z</time></trkpt><trkpt lat="43.73146222046506" lon="10.918474658723577"><ele>28.2</ele><time>2026-04-28T07:59:15Z</time></trkpt><trkpt lat="43.73146690918821" lon="10.91832096463756"><ele>28.0</ele><time>2026-04-28T07:59:16Z</time></trkpt><trkpt lat="43.731470347402535" lon="10.918175339429279"><ele>28.000000000000004</ele><time>2026-04-28T07:59:17Z</time></trkpt><trkpt lat="43.73147287610973" lon="10.918060930071231"><ele>28.0</ele><time>2026-04-28T07:59:18Z</time></trkpt><trkpt lat="43.73147429583818" lon="10.917973052194835"><ele>28.0</ele><time>2026-04-28T07:59:19Z</time></trkpt><trkpt lat="43.731479093716445" lon="10.91786963816733"><ele>28.0</ele><time>2026-04-28T07:59:20Z</time></trkpt><trkpt lat="43.731485955752106" lon="10.917726347752673"><ele>28.000000000000004</ele><time>2026-04-28T07:59:21Z</time></trkpt><trkpt lat="43.731494525560194" lon="10.917557740811146"><ele>28.0</ele><time>2026-04-28T07:59:22Z</time></trkpt><trkpt lat="43.73149867472641" lon="10.91736910910481"><ele>27.75</ele><time>2026-04-28T07:59:23Z</time></trkpt><trkpt lat="43.731502916083784" lon="10.917165089091275"><ele>27.5</ele><time>2026-04-28T07:59:24Z</time></trkpt><trkpt lat="43.731508388185865" lon="10.9169566465202"><ele>27.25</ele><time>2026-04-28T07:59:25Z</time></trkpt><trkpt lat="43.73151085842959" lon="10.916772076546712"><ele>27.0</ele><time>2026-04-28T07:59:26Z</time></trkpt><trkpt lat="43.731514178863655" lon="10.91660015599047"><ele>27.0</ele><time>2026-04-28T07:59:27Z</time></trkpt><trkpt lat="43.73151858173042" lon="10.916417899818503"><ele>27.0</ele><time>2026-04-28T07:59:28Z</time></trkpt><trkpt lat="43.73152311048366" lon="10.91621097580035"><ele>27.0</ele><time>2026-04-28T07:59:29Z</time></trkpt><trkpt lat="43.73153183983356" lon="10.91599179262604"><ele>27.0</ele><time>2026-04-28T07:59:30Z</time></trkpt><trkpt lat="43.731541570721966" lon="10.915782316055274"><ele>26.25</ele><time>2026-04-28T07:59:31Z</time></trkpt><trkpt lat="43.73155145589712" lon="10.915587311268006"><ele>25.5</ele><time>2026-04-28T07:59:32Z</time></trkpt><trkpt lat="43.731561679671415" lon="10.915410080077011"><ele>24.75</ele><time>2026-04-28T07:59:33Z</time></trkpt><trkpt lat="43.73157509745497" lon="10.915245753299562"><ele>24.0</ele><time>2026-04-28T07:59:34Z</time></trkpt><trkpt lat="43.7315898992554" lon="10.915081834998146"><ele>23.75</ele><time>2026-04-28T07:59:35Z</time></trkpt><trkpt lat="43.73160429485615" lon="10.914915920888328"><ele>23.5</ele><time>2026-04-28T07:59:36.001Z</time></trkpt><trkpt lat="43.731623979632964" lon="10.914744235604424"><ele>23.25</ele><time>2026-04-28T07:59:37.001Z</time></trkpt><trkpt lat="43.73164881198168" lon="10.914575644409005"><ele>23.0</ele><time>2026-04-28T07:59:38.001Z</time></trkpt><trkpt lat="43.731675734419206" lon="10.91440556561192"><ele>22.75</ele><time>2026-04-28T07:59:39.001Z</time></trkpt><trkpt lat="43.731701867352996" lon="10.91423340042045"><ele>22.5</ele><time>2026-04-28T07:59:40.001Z</time></trkpt><trkpt lat="43.731734365782636" lon="10.914064114506214"><ele>22.25</ele><time>2026-04-28T07:59:41.001Z</time></trkpt><trkpt lat="43.73176721619626" lon="10.913891356651128"><ele>22.0</ele><time>2026-04-28T07:59:42.001Z</time></trkpt><trkpt lat="43.73179636414881" lon="10.913719261946765"><ele>22.0</ele><time>2026-04-28T07:59:43.001Z</time></trkpt><trkpt lat="43.731829736158524" lon="10.913540106259296"><ele>22.0</ele><time>2026-04-28T07:59:44.001Z</time></trkpt><trkpt lat="43.73186184236673" lon="10.913350278633667"><ele>22.0</ele><time>2026-04-28T07:59:45.001Z</time></trkpt><trkpt lat="43.73189323510881" lon="10.913165984140857"><ele>22.0</ele><time>2026-04-28T07:59:46.001Z</time></trkpt><trkpt lat="43.73192305196967" lon="10.912988601792616"><ele>22.0</ele><time>2026-04-28T07:59:47.001Z</time></trkpt><trkpt lat="43.73195100205539" lon="10.912822814386496"><ele>22.0</ele><time>2026-04-28T07:59:48.001Z</time></trkpt><trkpt lat="43.73197890706767" lon="10.912675057306215"><ele>22.0</ele><time>2026-04-28T07:59:49.001Z</time></trkpt><trkpt lat="43.731999764774045" lon="10.912535587439098"><ele>22.0</ele><time>2026-04-28T07:59:50.001Z</time></trkpt><trkpt lat="43.73202606920382" lon="10.912390164676859"><ele>22.0</ele><time>2026-04-28T07:59:51.001Z</time></trkpt><trkpt lat="43.732056346823384" lon="10.912225072456339"><ele>22.0</ele><time>2026-04-28T07:59:52.001Z</time></trkpt><trkpt lat="43.73208703675122" lon="10.912052401462772"><ele>22.0</ele><time>2026-04-28T07:59:53.001Z</time></trkpt><trkpt lat="43.73211729227489" lon="10.911879469742518"><ele>22.0</ele><time>2026-04-28T07:59:54.001Z</time></trkpt><trkpt lat="43.7321488687734" lon="10.911702084592177"><ele>22.0</ele><time>2026-04-28T07:59:55.001Z</time></trkpt><trkpt lat="43.732181411685154" lon="10.911521365191007"><ele>22.0</ele><time>2026-04-28T07:59:56.001Z</time></trkpt><trkpt lat="43.73221451983541" lon="10.91134199457314"><ele>22.0</ele><time>2026-04-28T07:59:57.001Z</time></trkpt><trkpt lat="43.732247199901536" lon="10.911162182710985"><ele>22.0</ele><time>2026-04-28T07:59:58.001Z</time></trkpt><trkpt lat="43.73227969264537" lon="10.910979938474748"><ele>22.0</ele><time>2026-04-28T07:59:59.001Z</time></trkpt><trkpt lat="43.73231271028526" lon="10.910792552987216"><ele>22.0</ele><time>2026-04-28T08:00:00.001Z</time></trkpt><trkpt lat="43.73235164528434" lon="10.910606210820259"><ele>22.0</ele><time>2026-04-28T08:00:01.001Z</time></trkpt><trkpt lat="43.73238443120698" lon="10.910417826667777"><ele>22.0</ele><time>2026-04-28T08:00:02.001Z</time></trkpt><trkpt lat="43.73241970270686" lon="10.910228129142803"><ele>22.0</ele><time>2026-04-28T08:00:03.001Z</time></trkpt><trkpt lat="43.73245545395585" lon="10.910038855761595"><ele>22.25</ele><time>2026-04-28T08:00:04.001Z</time></trkpt><trkpt lat="43.7324932237842" lon="10.909847775279108"><ele>22.5</ele><time>2026-04-28T08:00:05.001Z</time></trkpt><trkpt lat="43.732534144037004" lon="10.909659079341923"><ele>22.75</ele><time>2026-04-28T08:00:06.001Z</time></trkpt><trkpt lat="43.73258365032399" lon="10.909475664747497"><ele>23.0</ele><time>2026-04-28T08:00:07.001Z</time></trkpt><trkpt lat="43.73264218513229" lon="10.909296573521006"><ele>23.0</ele><time>2026-04-28T08:00:08.001Z</time></trkpt><trkpt lat="43.73270449439701" lon="10.909122515415547"><ele>23.0</ele><time>2026-04-28T08:00:09.001Z</time></trkpt><trkpt lat="43.73277127334008" lon="10.908952966490062"><ele>23.0</ele><time>2026-04-28T08:00:10.001Z</time></trkpt><trkpt lat="43.73284449463337" lon="10.908793394325873"><ele>23.0</ele><time>2026-04-28T08:00:11.001Z</time></trkpt><trkpt lat="43.73291998095464" lon="10.908637140565117"><ele>23.0</ele><time>2026-04-28T08:00:12.001Z</time></trkpt><trkpt lat="43.73299709493996" lon="10.908484320872107"><ele>23.0</ele><time>2026-04-28T08:00:13.001Z</time></trkpt><trkpt lat="43.733074143314376" lon="10.908334927396124"><ele>23.0</ele><time>2026-04-28T08:00:14.001Z</time></trkpt><trkpt lat="43.73315074173089" lon="10.908199374407891"><ele>23.0</ele><time>2026-04-28T08:00:15.001Z</time></trkpt><trkpt lat="43.73321576492957" lon="10.908067529957588"><ele>23.0</ele><time>2026-04-28T08:00:16.001Z</time></trkpt><trkpt lat="43.73328270551692" lon="10.90793822369055"><ele>23.0</ele><time>2026-04-28T08:00:17.001Z</time></trkpt><trkpt lat="43.73334974491096" lon="10.907805152436922"><ele>23.0</ele><time>2026-04-28T08:00:18.001Z</time></trkpt><trkpt lat="43.73342077486761" lon="10.907663313858253"><ele>23.0</ele><time>2026-04-28T08:00:19.001Z</time></trkpt><trkpt lat="43.73349521009509" lon="10.907517871315367"><ele>23.25</ele><time>2026-04-28T08:00:20.001Z</time></trkpt><trkpt lat="43.733572185341636" lon="10.907368487355884"><ele>23.5</ele><time>2026-04-28T08:00:21.001Z</time></trkpt><trkpt lat="43.73364952745647" lon="10.907215058682675"><ele>23.75</ele><time>2026-04-28T08:00:22.001Z</time></trkpt><trkpt lat="43.73372807134525" lon="10.90705899160199"><ele>24.0</ele><time>2026-04-28T08:00:23.001Z</time></trkpt><trkpt lat="43.73380614888802" lon="10.906898687038062"><ele>24.5</ele><time>2026-04-28T08:00:24.001Z</time></trkpt><trkpt lat="43.73388776678223" lon="10.9067363484361"><ele>25.0</ele><time>2026-04-28T08:00:25.001Z</time></trkpt><trkpt lat="43.73397377848064" lon="10.906575987373492"><ele>25.5</ele><time>2026-04-28T08:00:26.001Z</time></trkpt><trkpt lat="43.73405379460378" lon="10.906404516042734"><ele>26.0</ele><time>2026-04-28T08:00:27.001Z</time></trkpt><trkpt lat="43.73413713679279" lon="10.906242712597349"><ele>26.0</ele><time>2026-04-28T08:00:28.001Z</time></trkpt><trkpt lat="43.734213097750796" lon="10.906090890114857"><ele>26.0</ele><time>2026-04-28T08:00:29.001Z</time></trkpt><trkpt lat="43.734288318152124" lon="10.905950336457142"><ele>26.0</ele><time>2026-04-28T08:00:30.001Z</time></trkpt><trkpt lat="43.73436526532392" lon="10.90580402543126"><ele>26.0</ele><time>2026-04-28T08:00:31.001Z</time></trkpt><trkpt lat="43.734443285303534" lon="10.905645816310594"><ele>26.0</ele><time>2026-04-28T08:00:32.001Z</time></trkpt><trkpt lat="43.73452140400953" lon="10.905490299820343"><ele>26.0</ele><time>2026-04-28T08:00:33.001Z</time></trkpt><trkpt lat="43.73459668666381" lon="10.9053401863915"><ele>26.0</ele><time>2026-04-28T08:00:34.001Z</time></trkpt><trkpt lat="43.734671045195135" lon="10.905190609208164"><ele>26.0</ele><time>2026-04-28T08:00:35.001Z</time></trkpt><trkpt lat="43.734744459779236" lon="10.905041397841012"><ele>25.75</ele><time>2026-04-28T08:00:36.001Z</time></trkpt><trkpt lat="43.73481650034086" lon="10.904900064511438"><ele>25.5</ele><time>2026-04-28T08:00:37.001Z</time></trkpt><trkpt lat="43.73488840866355" lon="10.904759023052542"><ele>25.25</ele><time>2026-04-28T08:00:38.001Z</time></trkpt><trkpt lat="43.73496020457856" lon="10.904622749254077"><ele>25.0</ele><time>2026-04-28T08:00:39.001Z</time></trkpt><trkpt lat="43.73503266897567" lon="10.904483782453315"><ele>25.0</ele><time>2026-04-28T08:00:40.001Z</time></trkpt><trkpt lat="43.73510475939854" lon="10.904347133132784"><ele>25.0</ele><time>2026-04-28T08:00:41.001Z</time></trkpt><trkpt lat="43.73517296051133" lon="10.90420807872351"><ele>25.0</ele><time>2026-04-28T08:00:42.001Z</time></trkpt><trkpt lat="43.73524308203776" lon="10.904068633096191"><ele>25.0</ele><time>2026-04-28T08:00:43.001Z</time></trkpt><trkpt lat="43.73531326637979" lon="10.903931374745559"><ele>25.0</ele><time>2026-04-28T08:00:44.001Z</time></trkpt><trkpt lat="43.73538427380526" lon="10.903792591010626"><ele>25.0</ele><time>2026-04-28T08:00:45.001Z</time></trkpt><trkpt lat="43.735457348016354" lon="10.903651326685265"><ele>25.0</ele><time>2026-04-28T08:00:46.001Z</time></trkpt><trkpt lat="43.73553532628097" lon="10.903510916529696"><ele>25.0</ele><time>2026-04-28T08:00:47.001Z</time></trkpt><trkpt lat="43.73561515071723" lon="10.903372629521918"><ele>25.0</ele><time>2026-04-28T08:00:48.001Z</time></trkpt><trkpt lat="43.73569533732441" lon="10.903250384136562"><ele>25.0</ele><time>2026-04-28T08:00:49.001Z</time></trkpt><trkpt lat="43.73576904705244" lon="10.903144490760083"><ele>25.0</ele><time>2026-04-28T08:00:50.001Z</time></trkpt><trkpt lat="43.735833593168195" lon="10.903055345365994"><ele>25.0</ele><time>2026-04-28T08:00:51.001Z</time></trkpt><trkpt lat="43.735893398586875" lon="10.90297105048327"><ele>25.0</ele><time>2026-04-28T08:00:52.002Z</time></trkpt><trkpt lat="43.73594629151405" lon="10.9028993684517"><ele>25.0</ele><time>2026-04-28T08:00:53.002Z</time></trkpt><trkpt lat="43.73602940130339" lon="10.902824131782243"><ele>25.0</ele><time>2026-04-28T08:00:55.002Z</time></trkpt><trkpt lat="43.73616713284646" lon="10.902769945090192"><ele>25.0</ele><time>2026-04-28T08:00:57.001Z</time></trkpt><trkpt lat="43.73624131944605" lon="10.902718685127672"><ele>25.0</ele><time>2026-04-28T08:00:58.001Z</time></trkpt><trkpt lat="43.73629969348898" lon="10.902664739658803"><ele>25.0</ele><time>2026-04-28T08:00:59.001Z</time></trkpt><trkpt lat="43.73633229848539" lon="10.90247540433277"><ele>25.0</ele><time>2026-04-28T08:01:01.001Z</time></trkpt><trkpt lat="43.73629232930224" lon="10.90236559036944"><ele>25.0</ele><time>2026-04-28T08:01:02.001Z</time></trkpt><trkpt lat="43.73624947870043" lon="10.902245867742353"><ele>25.0</ele><time>2026-04-28T08:01:03.001Z</time></trkpt><trkpt lat="43.73619609888343" lon="10.90210554408366"><ele>25.0</ele><time>2026-04-28T08:01:04.001Z</time></trkpt><trkpt lat="43.736152804910894" lon="10.90194464767293"><ele>25.0</ele><time>2026-04-28T08:01:05.001Z</time></trkpt><trkpt lat="43.7361034278755" lon="10.901803945535788"><ele>24.5</ele><time>2026-04-28T08:01:06.001Z</time></trkpt><trkpt lat="43.736098532691486" lon="10.901612583487484"><ele>24.0</ele><time>2026-04-28T08:01:07.001Z</time></trkpt><trkpt lat="43.73609782003117" lon="10.901425942904343"><ele>23.5</ele><time>2026-04-28T08:01:08.001Z</time></trkpt><trkpt lat="43.73606784933333" lon="10.9012411342683"><ele>23.0</ele><time>2026-04-28T08:01:09.001Z</time></trkpt><trkpt lat="43.7360543688246" lon="10.901054080578955"><ele>23.0</ele><time>2026-04-28T08:01:10.001Z</time></trkpt><trkpt lat="43.73603646006114" lon="10.900860215145672"><ele>23.0</ele><time>2026-04-28T08:01:11.001Z</time></trkpt><trkpt lat="43.73601683004588" lon="10.90066506288889"><ele>23.0</ele><time>2026-04-28T08:01:12.001Z</time></trkpt><trkpt lat="43.735995715929825" lon="10.900471503093367"><ele>23.0</ele><time>2026-04-28T08:01:13.001Z</time></trkpt><trkpt lat="43.73597575866657" lon="10.90029542568074"><ele>23.0</ele><time>2026-04-28T08:01:14.001Z</time></trkpt><trkpt lat="43.735960771457655" lon="10.900136746658148"><ele>23.0</ele><time>2026-04-28T08:01:15.001Z</time></trkpt><trkpt lat="43.73594827486223" lon="10.899995411300639"><ele>23.0</ele><time>2026-04-28T08:01:16.001Z</time></trkpt><trkpt lat="43.73593876088518" lon="10.899884776317997"><ele>23.0</ele><time>2026-04-28T08:01:17.001Z</time></trkpt><trkpt lat="43.73592781132984" lon="10.899779979575834"><ele>23.0</ele><time>2026-04-28T08:01:19.001Z</time></trkpt><trkpt lat="43.735910297450125" lon="10.89968548187771"><ele>23.0</ele><time>2026-04-28T08:01:39.001Z</time></trkpt><trkpt lat="43.73589298195358" lon="10.899577364638503"><ele>23.25</ele><time>2026-04-28T08:01:40.001Z</time></trkpt><trkpt lat="43.73587408244181" lon="10.899442929923454"><ele>23.5</ele><time>2026-04-28T08:01:41.001Z</time></trkpt><trkpt lat="43.735856405852246" lon="10.899275965107668"><ele>23.75</ele><time>2026-04-28T08:01:42.001Z</time></trkpt><trkpt lat="43.735836382806504" lon="10.899091204735726"><ele>24.0</ele><time>2026-04-28T08:01:43.001Z</time></trkpt><trkpt lat="43.73581266196038" lon="10.898889271753964"><ele>24.0</ele><time>2026-04-28T08:01:44.001Z</time></trkpt><trkpt lat="43.735784276678075" lon="10.898666073878307"><ele>24.0</ele><time>2026-04-28T08:01:45.001Z</time></trkpt><trkpt lat="43.7357516642778" lon="10.898429234582506"><ele>24.0</ele><time>2026-04-28T08:01:46.001Z</time></trkpt><trkpt lat="43.73571762669645" lon="10.898192910896123"><ele>24.0</ele><time>2026-04-28T08:01:47.001Z</time></trkpt><trkpt lat="43.735695349599254" lon="10.897944192961095"><ele>24.0</ele><time>2026-04-28T08:01:48.001Z</time></trkpt><trkpt lat="43.73565070383235" lon="10.897696996196002"><ele>24.0</ele><time>2026-04-28T08:01:49.001Z</time></trkpt><trkpt lat="43.735598658489" lon="10.8974463388216"><ele>24.666666666666664</ele><time>2026-04-28T08:01:50.001Z</time></trkpt><trkpt lat="43.73554208747435" lon="10.897201105014851"><ele>25.333333333333332</ele><time>2026-04-28T08:01:51.001Z</time></trkpt><trkpt lat="43.73546817605677" lon="10.896946931113467"><ele>26.0</ele><time>2026-04-28T08:01:52.001Z</time></trkpt><trkpt lat="43.73536972540381" lon="10.896697256690997"><ele>27.333333333333332</ele><time>2026-04-28T08:01:53.001Z</time></trkpt><trkpt lat="43.73528144721533" lon="10.896450094880203"><ele>28.666666666666664</ele><time>2026-04-28T08:01:54.001Z</time></trkpt><trkpt lat="43.73518380966146" lon="10.896217306794679"><ele>30.0</ele><time>2026-04-28T08:01:55.001Z</time></trkpt><trkpt lat="43.73508196422243" lon="10.895997314848303"><ele>29.333333333333336</ele><time>2026-04-28T08:01:56.001Z</time></trkpt><trkpt lat="43.73496821194957" lon="10.895777042979448"><ele>28.666666666666668</ele><time>2026-04-28T08:01:57.001Z</time></trkpt><trkpt lat="43.7348431869828" lon="10.895561811868092"><ele>28.0</ele><time>2026-04-28T08:01:58.001Z</time></trkpt><trkpt lat="43.734709612929905" lon="10.895357201978227"><ele>28.0</ele><time>2026-04-28T08:01:59.001Z</time></trkpt><trkpt lat="43.73456949795577" lon="10.895164888008539"><ele>28.0</ele><time>2026-04-28T08:02:00.001Z</time></trkpt><trkpt lat="43.73442304401986" lon="10.894980421525785"><ele>28.0</ele><time>2026-04-28T08:02:01.001Z</time></trkpt><trkpt lat="43.73426812248449" lon="10.894799397182028"><ele>26.0</ele><time>2026-04-28T08:02:02.001Z</time></trkpt><trkpt lat="43.73412332119702" lon="10.894612570056866"><ele>24.0</ele><time>2026-04-28T08:02:03.001Z</time></trkpt><trkpt lat="43.73397030682856" lon="10.894448229859208"><ele>22.0</ele><time>2026-04-28T08:02:04.001Z</time></trkpt><trkpt lat="43.73381311283441" lon="10.894286579415628"><ele>21.333333333333332</ele><time>2026-04-28T08:02:05.001Z</time></trkpt><trkpt lat="43.73364498943299" lon="10.894142316620645"><ele>20.666666666666668</ele><time>2026-04-28T08:02:06.001Z</time></trkpt><trkpt lat="43.733489322066056" lon="10.893984677938327"><ele>20.0</ele><time>2026-04-28T08:02:07.001Z</time></trkpt><trkpt lat="43.73334374327185" lon="10.89383721166982"><ele>20.0</ele><time>2026-04-28T08:02:08.001Z</time></trkpt><trkpt lat="43.733196111520186" lon="10.893689048958558"><ele>20.0</ele><time>2026-04-28T08:02:09.001Z</time></trkpt><trkpt lat="43.73304403211751" lon="10.893536984077896"><ele>20.0</ele><time>2026-04-28T08:02:10.001Z</time></trkpt><trkpt lat="43.73289672981504" lon="10.893391296692938"><ele>20.333333333333336</ele><time>2026-04-28T08:02:11.001Z</time></trkpt><trkpt lat="43.73275205896229" lon="10.893249668198195"><ele>20.666666666666668</ele><time>2026-04-28T08:02:12.001Z</time></trkpt><trkpt lat="43.732607656348954" lon="10.893110156273659"><ele>21.0</ele><time>2026-04-28T08:02:13.001Z</time></trkpt><trkpt lat="43.73246970552024" lon="10.892943364054954"><ele>21.0</ele><time>2026-04-28T08:02:14.001Z</time></trkpt><trkpt lat="43.7323220877158" lon="10.892793710179683"><ele>21.0</ele><time>2026-04-28T08:02:15.001Z</time></trkpt><trkpt lat="43.732175495450164" lon="10.892645865749598"><ele>21.0</ele><time>2026-04-28T08:02:16.001Z</time></trkpt><trkpt lat="43.73202039055603" lon="10.892516026788956"><ele>21.666666666666668</ele><time>2026-04-28T08:02:17.001Z</time></trkpt><trkpt lat="43.731883652628234" lon="10.89234214640187"><ele>22.333333333333336</ele><time>2026-04-28T08:02:18.001Z</time></trkpt><trkpt lat="43.731736804649536" lon="10.892208677441277"><ele>23.0</ele><time>2026-04-28T08:02:19.001Z</time></trkpt><trkpt lat="43.73160960929846" lon="10.8920328653869"><ele>23.0</ele><time>2026-04-28T08:02:20.001Z</time></trkpt><trkpt lat="43.73146922670106" lon="10.891869897163495"><ele>23.0</ele><time>2026-04-28T08:02:21.001Z</time></trkpt><trkpt lat="43.73132946550176" lon="10.891706855930163"><ele>23.0</ele><time>2026-04-28T08:02:22.001Z</time></trkpt><trkpt lat="43.731191107923564" lon="10.89154508492042"><ele>23.333333333333336</ele><time>2026-04-28T08:02:23.001Z</time></trkpt><trkpt lat="43.73105392164263" lon="10.8913846834415"><ele>23.666666666666668</ele><time>2026-04-28T08:02:24.001Z</time></trkpt><trkpt lat="43.73091641392745" lon="10.89122390612007"><ele>24.0</ele><time>2026-04-28T08:02:25.001Z</time></trkpt><trkpt lat="43.730778756453404" lon="10.891062953709595"><ele>25.333333333333336</ele><time>2026-04-28T08:02:26.001Z</time></trkpt><trkpt lat="43.7306440308676" lon="10.89090542934642"><ele>26.666666666666668</ele><time>2026-04-28T08:02:27.001Z</time></trkpt><trkpt lat="43.730500449683184" lon="10.890762425495568"><ele>28.0</ele><time>2026-04-28T08:02:28.001Z</time></trkpt><trkpt lat="43.730370978265384" lon="10.890600093388972"><ele>28.0</ele><time>2026-04-28T08:02:29.001Z</time></trkpt><trkpt lat="43.73023497117884" lon="10.890442285005554"><ele>28.0</ele><time>2026-04-28T08:02:30.001Z</time></trkpt><trkpt lat="43.73010043805662" lon="10.890286437708916"><ele>28.0</ele><time>2026-04-28T08:02:31.001Z</time></trkpt><trkpt lat="43.729972557498996" lon="10.89013895975905"><ele>28.0</ele><time>2026-04-28T08:02:32.001Z</time></trkpt><trkpt lat="43.729846862252735" lon="10.889994717543"><ele>28.0</ele><time>2026-04-28T08:02:33.001Z</time></trkpt><trkpt lat="43.72972188494037" lon="10.889849253278523"><ele>28.0</ele><time>2026-04-28T08:02:34.001Z</time></trkpt><trkpt lat="43.7295916569762" lon="10.889702021709544"><ele>28.0</ele><time>2026-04-28T08:02:35.001Z</time></trkpt><trkpt lat="43.72946445202097" lon="10.889552551834859"><ele>28.0</ele><time>2026-04-28T08:02:36.001Z</time></trkpt><trkpt lat="43.729334242648484" lon="10.889398580326327"><ele>28.0</ele><time>2026-04-28T08:02:37.001Z</time></trkpt><trkpt lat="43.729206990018035" lon="10.889251149486698"><ele>28.0</ele><time>2026-04-28T08:02:38.001Z</time></trkpt><trkpt lat="43.729079170549284" lon="10.889102793244733"><ele>28.0</ele><time>2026-04-28T08:02:39.001Z</time></trkpt><trkpt lat="43.72895544905933" lon="10.888954918463188"><ele>28.0</ele><time>2026-04-28T08:02:40.001Z</time></trkpt><trkpt lat="43.72883057727156" lon="10.888805325159252"><ele>28.0</ele><time>2026-04-28T08:02:41.001Z</time></trkpt><trkpt lat="43.728699578776414" lon="10.888649898577393"><ele>28.0</ele><time>2026-04-28T08:02:42.001Z</time></trkpt><trkpt lat="43.7285574177281" lon="10.88848691557721"><ele>28.0</ele><time>2026-04-28T08:02:43.001Z</time></trkpt><trkpt lat="43.72840707513468" lon="10.88831261944761"><ele>27.333333333333336</ele><time>2026-04-28T08:02:44.001Z</time></trkpt><trkpt lat="43.728250075043356" lon="10.88813279266565"><ele>26.666666666666664</ele><time>2026-04-28T08:02:45.001Z</time></trkpt><trkpt lat="43.728096877900164" lon="10.887926858536666"><ele>26.0</ele><time>2026-04-28T08:02:46.001Z</time></trkpt><trkpt lat="43.727924028390895" lon="10.887725767065412"><ele>26.5</ele><time>2026-04-28T08:02:47.001Z</time></trkpt><trkpt lat="43.72774474411586" lon="10.887517189456986"><ele>27.0</ele><time>2026-04-28T08:02:48.001Z</time></trkpt><trkpt lat="43.72756304270052" lon="10.887305352583635"><ele>25.5</ele><time>2026-04-28T08:02:49.001Z</time></trkpt><trkpt lat="43.727385777007555" lon="10.887098402194209"><ele>24.0</ele><time>2026-04-28T08:02:50.001Z</time></trkpt><trkpt lat="43.72720773070511" lon="10.886907697822034"><ele>24.0</ele><time>2026-04-28T08:02:51.001Z</time></trkpt><trkpt lat="43.72703924557306" lon="10.886706511957911"><ele>24.0</ele><time>2026-04-28T08:02:52.001Z</time></trkpt><trkpt lat="43.72687049808635" lon="10.886508221841101"><ele>24.0</ele><time>2026-04-28T08:02:53.001Z</time></trkpt><trkpt lat="43.7267036664171" lon="10.886313162022256"><ele>24.0</ele><time>2026-04-28T08:02:54.001Z</time></trkpt><trkpt lat="43.72653516633783" lon="10.886116772728183"><ele>24.0</ele><time>2026-04-28T08:02:55.001Z</time></trkpt><trkpt lat="43.726363281789624" lon="10.88591750289763"><ele>24.0</ele><time>2026-04-28T08:02:56.001Z</time></trkpt><trkpt lat="43.72620494440925" lon="10.885730981189166"><ele>24.0</ele><time>2026-04-28T08:02:57.001Z</time></trkpt><trkpt lat="43.72605417232424" lon="10.885552226005492"><ele>24.0</ele><time>2026-04-28T08:02:58.001Z</time></trkpt><trkpt lat="43.725903966151364" lon="10.88537983087591"><ele>24.0</ele><time>2026-04-28T08:02:59.001Z</time></trkpt><trkpt lat="43.72575220996354" lon="10.88519671230097"><ele>24.333333333333336</ele><time>2026-04-28T08:03:00.002Z</time></trkpt><trkpt lat="43.72560201733783" lon="10.88499889780194"><ele>24.666666666666668</ele><time>2026-04-28T08:03:01.002Z</time></trkpt><trkpt lat="43.725468453841756" lon="10.88480650833965"><ele>25.0</ele><time>2026-04-28T08:03:02Z</time></trkpt><trkpt lat="43.72536759892975" lon="10.884600181772843"><ele>25.0</ele><time>2026-04-28T08:03:03Z</time></trkpt><trkpt lat="43.72525201694429" lon="10.884408192085305"><ele>25.0</ele><time>2026-04-28T08:03:04Z</time></trkpt><trkpt lat="43.72516643897127" lon="10.884200326066875"><ele>25.0</ele><time>2026-04-28T08:03:05Z</time></trkpt><trkpt lat="43.725092870736255" lon="10.883997192629979"><ele>25.333333333333336</ele><time>2026-04-28T08:03:06Z</time></trkpt><trkpt lat="43.72502933145239" lon="10.88379162451264"><ele>25.666666666666664</ele><time>2026-04-28T08:03:07Z</time></trkpt><trkpt lat="43.724978229296205" lon="10.883593486515409"><ele>26.0</ele><time>2026-04-28T08:03:08Z</time></trkpt><trkpt lat="43.72493557660671" lon="10.88339831905761"><ele>25.5</ele><time>2026-04-28T08:03:09Z</time></trkpt><trkpt lat="43.724896390780856" lon="10.883194792337369"><ele>25.0</ele><time>2026-04-28T08:03:10Z</time></trkpt><trkpt lat="43.724884034517125" lon="10.882984706807795"><ele>24.5</ele><time>2026-04-28T08:03:11Z</time></trkpt><trkpt lat="43.724864906957635" lon="10.882794805143181"><ele>24.0</ele><time>2026-04-28T08:03:12Z</time></trkpt><trkpt lat="43.7248560912955" lon="10.882616388168207"><ele>24.4</ele><time>2026-04-28T08:03:13Z</time></trkpt><trkpt lat="43.72485325449547" lon="10.882459671976019"><ele>24.799999999999997</ele><time>2026-04-28T08:03:14Z</time></trkpt><trkpt lat="43.724841741374995" lon="10.882321563497484"><ele>25.200000000000003</ele><time>2026-04-28T08:03:15Z</time></trkpt><trkpt lat="43.72484813450196" lon="10.882193858818804"><ele>25.6</ele><time>2026-04-28T08:03:16Z</time></trkpt><trkpt lat="43.72486022852645" lon="10.882075275298387"><ele>26.0</ele><time>2026-04-28T08:03:17Z</time></trkpt><trkpt lat="43.724872020919236" lon="10.881929464640535"><ele>25.75</ele><time>2026-04-28T08:03:18Z</time></trkpt><trkpt lat="43.7248829534944" lon="10.881746586095979"><ele>25.5</ele><time>2026-04-28T08:03:19Z</time></trkpt><trkpt lat="43.724889996501986" lon="10.881567860210591"><ele>25.25</ele><time>2026-04-28T08:03:20Z</time></trkpt><trkpt lat="43.724897206366045" lon="10.881414577633162"><ele>25.0</ele><time>2026-04-28T08:03:21Z</time></trkpt><trkpt lat="43.72490674126571" lon="10.881294544712281"><ele>25.000000000000004</ele><time>2026-04-28T08:03:22Z</time></trkpt><trkpt lat="43.72493194311314" lon="10.881196854441527"><ele>25.0</ele><time>2026-04-28T08:03:23Z</time></trkpt><trkpt lat="43.72497969100419" lon="10.88109392786478"><ele>25.0</ele><time>2026-04-28T08:03:24Z</time></trkpt><trkpt lat="43.725041093346434" lon="10.8809840489918"><ele>25.0</ele><time>2026-04-28T08:03:25Z</time></trkpt><trkpt lat="43.72507840397827" lon="10.880878867199227"><ele>25.000000000000004</ele><time>2026-04-28T08:03:26Z</time></trkpt><trkpt lat="43.725086673902766" lon="10.880789049660988"><ele>25.0</ele><time>2026-04-28T08:03:27Z</time></trkpt><trkpt lat="43.72507990188728" lon="10.880696331156019"><ele>24.8</ele><time>2026-04-28T08:03:28Z</time></trkpt><trkpt lat="43.725057955099324" lon="10.880591424828566"><ele>24.6</ele><time>2026-04-28T08:03:29Z</time></trkpt><trkpt lat="43.72501600157473" lon="10.880474084035445"><ele>24.4</ele><time>2026-04-28T08:03:30Z</time></trkpt><trkpt lat="43.72496562050641" lon="10.880377834637446"><ele>24.2</ele><time>2026-04-28T08:03:31Z</time></trkpt><trkpt lat="43.724923534512776" lon="10.880264531193083"><ele>24.0</ele><time>2026-04-28T08:03:32Z</time></trkpt><trkpt lat="43.72489708170265" lon="10.88012405510478"><ele>24.2</ele><time>2026-04-28T08:03:33Z</time></trkpt><trkpt lat="43.724886573306584" lon="10.879967477507412"><ele>24.4</ele><time>2026-04-28T08:03:34Z</time></trkpt><trkpt lat="43.724892676163165" lon="10.879814326442037"><ele>24.6</ele><time>2026-04-28T08:03:35Z</time></trkpt><trkpt lat="43.72489671987471" lon="10.879666396820403"><ele>24.8</ele><time>2026-04-28T08:03:36Z</time></trkpt><trkpt lat="43.72489783052214" lon="10.879518863214171"><ele>25.0</ele><time>2026-04-28T08:03:37Z</time></trkpt><trkpt lat="43.7248955889547" lon="10.879368290655217"><ele>25.0</ele><time>2026-04-28T08:03:38Z</time></trkpt><trkpt lat="43.72489997270797" lon="10.87921081556262"><ele>25.0</ele><time>2026-04-28T08:03:39Z</time></trkpt><trkpt lat="43.72485534178595" lon="10.879054217873403"><ele>25.0</ele><time>2026-04-28T08:03:40Z</time></trkpt><trkpt lat="43.7248228710722" lon="10.878907890244601"><ele>25.0</ele><time>2026-04-28T08:03:41Z</time></trkpt><trkpt lat="43.724787228908944" lon="10.878761774820374"><ele>25.0</ele><time>2026-04-28T08:03:42Z</time></trkpt><trkpt lat="43.72476274842533" lon="10.878604463250172"><ele>25.0</ele><time>2026-04-28T08:03:43Z</time></trkpt><trkpt lat="43.72472502103965" lon="10.87845153098007"><ele>25.0</ele><time>2026-04-28T08:03:44Z</time></trkpt><trkpt lat="43.72468944443831" lon="10.878307317195492"><ele>25.0</ele><time>2026-04-28T08:03:45Z</time></trkpt><trkpt lat="43.724655860236865" lon="10.878171733905598"><ele>25.0</ele><time>2026-04-28T08:03:46Z</time></trkpt><trkpt lat="43.724618837598506" lon="10.878024326847115"><ele>25.0</ele><time>2026-04-28T08:03:47Z</time></trkpt><trkpt lat="43.724579052039516" lon="10.877869077711374"><ele>25.0</ele><time>2026-04-28T08:03:48Z</time></trkpt><trkpt lat="43.72453600299618" lon="10.877704668787358"><ele>25.0</ele><time>2026-04-28T08:03:49Z</time></trkpt><trkpt lat="43.72449012337768" lon="10.877529449496695"><ele>25.0</ele><time>2026-04-28T08:03:50Z</time></trkpt><trkpt lat="43.72444301668224" lon="10.877349543961412"><ele>25.0</ele><time>2026-04-28T08:03:51Z</time></trkpt><trkpt lat="43.72439794109565" lon="10.877177265439178"><ele>25.0</ele><time>2026-04-28T08:03:52Z</time></trkpt><trkpt lat="43.72435754272232" lon="10.8770244417054"><ele>25.0</ele><time>2026-04-28T08:03:53Z</time></trkpt><trkpt lat="43.72432212051253" lon="10.876890442511684"><ele>25.0</ele><time>2026-04-28T08:03:54Z</time></trkpt><trkpt lat="43.724289242341854" lon="10.876765390310728"><ele>25.0</ele><time>2026-04-28T08:03:55Z</time></trkpt><trkpt lat="43.72425190034696" lon="10.876622125549714"><ele>26.0</ele><time>2026-04-28T08:03:56Z</time></trkpt><trkpt lat="43.724204616065705" lon="10.876440716320099"><ele>27.0</ele><time>2026-04-28T08:03:57Z</time></trkpt><trkpt lat="43.72414539541177" lon="10.876220405056747"><ele>28.0</ele><time>2026-04-28T08:03:58Z</time></trkpt><trkpt lat="43.724090168149615" lon="10.876011223650785"><ele>28.0</ele><time>2026-04-28T08:03:59Z</time></trkpt><trkpt lat="43.7240336942929" lon="10.875797320716124"><ele>28.0</ele><time>2026-04-28T08:04:00.001Z</time></trkpt><trkpt lat="43.72396926921125" lon="10.875554259544552"><ele>28.0</ele><time>2026-04-28T08:04:01.001Z</time></trkpt><trkpt lat="43.72390675892139" lon="10.875315505368496"><ele>27.333333333333336</ele><time>2026-04-28T08:04:02.001Z</time></trkpt><trkpt lat="43.72384740430902" lon="10.875087382028246"><ele>26.666666666666664</ele><time>2026-04-28T08:04:03.001Z</time></trkpt><trkpt lat="43.72378748318711" lon="10.874862994166351"><ele>26.0</ele><time>2026-04-28T08:04:04.001Z</time></trkpt><trkpt lat="43.7237285034748" lon="10.874640789085998"><ele>26.0</ele><time>2026-04-28T08:04:05.001Z</time></trkpt><trkpt lat="43.72367124028684" lon="10.874425049718898"><ele>26.0</ele><time>2026-04-28T08:04:06.001Z</time></trkpt><trkpt lat="43.723615790810655" lon="10.874214540909694"><ele>26.0</ele><time>2026-04-28T08:04:07.001Z</time></trkpt><trkpt lat="43.72356004780678" lon="10.874004130049244"><ele>26.333333333333332</ele><time>2026-04-28T08:04:08.001Z</time></trkpt><trkpt lat="43.72350343229046" lon="10.873790779216085"><ele>26.666666666666664</ele><time>2026-04-28T08:04:09.001Z</time></trkpt><trkpt lat="43.723449071110586" lon="10.873584603738765"><ele>27.0</ele><time>2026-04-28T08:04:10.001Z</time></trkpt><trkpt lat="43.72339853014398" lon="10.873392502878398"><ele>27.0</ele><time>2026-04-28T08:04:11.001Z</time></trkpt><trkpt lat="43.72335050722641" lon="10.87321103899567"><ele>27.0</ele><time>2026-04-28T08:04:12.001Z</time></trkpt><trkpt lat="43.723300760379786" lon="10.873023815331916"><ele>27.0</ele><time>2026-04-28T08:04:13.001Z</time></trkpt><trkpt lat="43.72324607378646" lon="10.872816696515931"><ele>27.0</ele><time>2026-04-28T08:04:14.001Z</time></trkpt><trkpt lat="43.72319004344309" lon="10.872603621387265"><ele>27.0</ele><time>2026-04-28T08:04:15.001Z</time></trkpt><trkpt lat="43.723133147552076" lon="10.872388087938315"><ele>27.0</ele><time>2026-04-28T08:04:16.001Z</time></trkpt><trkpt lat="43.723076383122475" lon="10.87217580487184"><ele>27.0</ele><time>2026-04-28T08:04:17.001Z</time></trkpt><trkpt lat="43.723019620468804" lon="10.871963709598091"><ele>26.333333333333336</ele><time>2026-04-28T08:04:18.001Z</time></trkpt><trkpt lat="43.7229605191768" lon="10.871742874716212"><ele>25.666666666666668</ele><time>2026-04-28T08:04:19.001Z</time></trkpt><trkpt lat="43.72289981926038" lon="10.871514407125053"><ele>25.0</ele><time>2026-04-28T08:04:20.001Z</time></trkpt><trkpt lat="43.72283853326563" lon="10.871284198162785"><ele>25.0</ele><time>2026-04-28T08:04:21.001Z</time></trkpt><trkpt lat="43.72277764679799" lon="10.871055792247544"><ele>25.0</ele><time>2026-04-28T08:04:22.001Z</time></trkpt><trkpt lat="43.722719301998204" lon="10.870836920963095"><ele>25.0</ele><time>2026-04-28T08:04:23.001Z</time></trkpt><trkpt lat="43.72266370367348" lon="10.870628215561773"><ele>25.0</ele><time>2026-04-28T08:04:24.001Z</time></trkpt><trkpt lat="43.72259234306093" lon="10.870422790693949"><ele>25.0</ele><time>2026-04-28T08:04:25.001Z</time></trkpt><trkpt lat="43.722533114296574" lon="10.870203381241371"><ele>25.0</ele><time>2026-04-28T08:04:26.001Z</time></trkpt><trkpt lat="43.72247131917664" lon="10.869971213634162"><ele>25.0</ele><time>2026-04-28T08:04:27.001Z</time></trkpt><trkpt lat="43.72240891538778" lon="10.869734891026821"><ele>25.0</ele><time>2026-04-28T08:04:28.001Z</time></trkpt><trkpt lat="43.7223453764154" lon="10.86949307462291"><ele>25.0</ele><time>2026-04-28T08:04:29.001Z</time></trkpt><trkpt lat="43.72228386873153" lon="10.869253537193043"><ele>25.333333333333336</ele><time>2026-04-28T08:04:30.001Z</time></trkpt><trkpt lat="43.722220845773734" lon="10.869020178958685"><ele>25.666666666666664</ele><time>2026-04-28T08:04:31.001Z</time></trkpt><trkpt lat="43.72216253043762" lon="10.868793253092123"><ele>26.0</ele><time>2026-04-28T08:04:32.001Z</time></trkpt><trkpt lat="43.72210075363818" lon="10.868558537141803"><ele>26.333333333333332</ele><time>2026-04-28T08:04:33.001Z</time></trkpt><trkpt lat="43.72203760396187" lon="10.868314136610293"><ele>26.666666666666664</ele><time>2026-04-28T08:04:34.001Z</time></trkpt><trkpt lat="43.721974948957715" lon="10.86807051247421"><ele>27.0</ele><time>2026-04-28T08:04:35.001Z</time></trkpt><trkpt lat="43.72191055364433" lon="10.867827835653124"><ele>26.333333333333336</ele><time>2026-04-28T08:04:36.001Z</time></trkpt><trkpt lat="43.72184651587302" lon="10.867588882011702"><ele>25.666666666666668</ele><time>2026-04-28T08:04:37.001Z</time></trkpt><trkpt lat="43.72177930002047" lon="10.867343958522246"><ele>25.0</ele><time>2026-04-28T08:04:38.001Z</time></trkpt><trkpt lat="43.721710507966414" lon="10.867098079290814"><ele>25.0</ele><time>2026-04-28T08:04:39.001Z</time></trkpt><trkpt lat="43.7216410830387" lon="10.866850265364267"><ele>25.0</ele><time>2026-04-28T08:04:40.001Z</time></trkpt><trkpt lat="43.72158557451697" lon="10.866587829655538"><ele>25.0</ele><time>2026-04-28T08:04:41.001Z</time></trkpt><trkpt lat="43.72151809727922" lon="10.866334290388991"><ele>25.333333333333336</ele><time>2026-04-28T08:04:42.001Z</time></trkpt><trkpt lat="43.72143879477225" lon="10.866099036329643"><ele>25.666666666666664</ele><time>2026-04-28T08:04:43.001Z</time></trkpt><trkpt lat="43.7213760158683" lon="10.865856403683312"><ele>26.0</ele><time>2026-04-28T08:04:44.001Z</time></trkpt><trkpt lat="43.72131564851299" lon="10.8656121800335"><ele>27.0</ele><time>2026-04-28T08:04:45.001Z</time></trkpt><trkpt lat="43.721256255413586" lon="10.865376811603326"><ele>28.0</ele><time>2026-04-28T08:04:46.001Z</time></trkpt><trkpt lat="43.72119567444898" lon="10.86515941351459"><ele>29.0</ele><time>2026-04-28T08:04:47.001Z</time></trkpt><trkpt lat="43.72114399252965" lon="10.864937084943817"><ele>29.333333333333332</ele><time>2026-04-28T08:04:48.001Z</time></trkpt><trkpt lat="43.721124790132386" lon="10.86471678423894"><ele>29.666666666666664</ele><time>2026-04-28T08:04:49.001Z</time></trkpt><trkpt lat="43.721103252244795" lon="10.864507009408952"><ele>30.0</ele><time>2026-04-28T08:04:50.001Z</time></trkpt><trkpt lat="43.72109324004519" lon="10.864289786303374"><ele>29.0</ele><time>2026-04-28T08:04:51.001Z</time></trkpt><trkpt lat="43.72107125244609" lon="10.864060322974511"><ele>28.0</ele><time>2026-04-28T08:04:52.001Z</time></trkpt><trkpt lat="43.72109046131624" lon="10.863809906459524"><ele>27.0</ele><time>2026-04-28T08:04:53.001Z</time></trkpt><trkpt lat="43.72108684146813" lon="10.863558393531864"><ele>26.333333333333336</ele><time>2026-04-28T08:04:54.001Z</time></trkpt><trkpt lat="43.72112398667819" lon="10.863317101525098"><ele>25.666666666666668</ele><time>2026-04-28T08:04:55.001Z</time></trkpt><trkpt lat="43.72114650711039" lon="10.863089554769576"><ele>25.0</ele><time>2026-04-28T08:04:56.001Z</time></trkpt><trkpt lat="43.7211702884697" lon="10.862852348669561"><ele>24.333333333333336</ele><time>2026-04-28T08:04:57.001Z</time></trkpt><trkpt lat="43.7211951302094" lon="10.862604565856953"><ele>23.666666666666668</ele><time>2026-04-28T08:04:58.001Z</time></trkpt><trkpt lat="43.72122070026575" lon="10.862349518457114"><ele>23.0</ele><time>2026-04-28T08:04:59.001Z</time></trkpt><trkpt lat="43.72124684039946" lon="10.862086146114402"><ele>23.0</ele><time>2026-04-28T08:05:00.001Z</time></trkpt><trkpt lat="43.72127219716724" lon="10.861827670819292"><ele>23.0</ele><time>2026-04-28T08:05:01.001Z</time></trkpt><trkpt lat="43.721296038217204" lon="10.861584645760777"><ele>23.0</ele><time>2026-04-28T08:05:02.001Z</time></trkpt><trkpt lat="43.721303519490306" lon="10.86134142469837"><ele>23.0</ele><time>2026-04-28T08:05:03.001Z</time></trkpt><trkpt lat="43.72134344050528" lon="10.861101164439853"><ele>23.0</ele><time>2026-04-28T08:05:04.001Z</time></trkpt><trkpt lat="43.721366346645965" lon="10.860873387160373"><ele>23.0</ele><time>2026-04-28T08:05:05.001Z</time></trkpt><trkpt lat="43.721390041098374" lon="10.86063750359361"><ele>23.0</ele><time>2026-04-28T08:05:06.001Z</time></trkpt><trkpt lat="43.72141465682392" lon="10.860392448587314"><ele>23.0</ele><time>2026-04-28T08:05:07.001Z</time></trkpt><trkpt lat="43.72143914505073" lon="10.860159991876415"><ele>23.0</ele><time>2026-04-28T08:05:07.999Z</time></trkpt><trkpt lat="43.72146437052729" lon="10.859921259476764"><ele>23.333333333333336</ele><time>2026-04-28T08:05:08.999Z</time></trkpt><trkpt lat="43.721490106179125" lon="10.85967538696717"><ele>23.666666666666668</ele><time>2026-04-28T08:05:09.999Z</time></trkpt><trkpt lat="43.72151590342448" lon="10.859428619419838"><ele>24.0</ele><time>2026-04-28T08:05:10.999Z</time></trkpt><trkpt lat="43.72153777626696" lon="10.859194373441154"><ele>24.333333333333336</ele><time>2026-04-28T08:05:11.999Z</time></trkpt><trkpt lat="43.721558686272154" lon="10.85896929837881"><ele>24.666666666666668</ele><time>2026-04-28T08:05:13Z</time></trkpt><trkpt lat="43.721580637433796" lon="10.858736879137282"><ele>25.0</ele><time>2026-04-28T08:05:14Z</time></trkpt><trkpt lat="43.72160358427169" lon="10.858503766481025"><ele>24.666666666666668</ele><time>2026-04-28T08:05:15Z</time></trkpt><trkpt lat="43.72162725460346" lon="10.858277923118962"><ele>24.333333333333336</ele><time>2026-04-28T08:05:16Z</time></trkpt><trkpt lat="43.72164967031842" lon="10.858064050206437"><ele>24.0</ele><time>2026-04-28T08:05:17Z</time></trkpt><trkpt lat="43.7216718175461" lon="10.857852739030177"><ele>24.0</ele><time>2026-04-28T08:05:18Z</time></trkpt><trkpt lat="43.72169467603582" lon="10.85763464160621"><ele>24.0</ele><time>2026-04-28T08:05:19Z</time></trkpt><trkpt lat="43.72171945485902" lon="10.857398221775952"><ele>24.0</ele><time>2026-04-28T08:05:20Z</time></trkpt><trkpt lat="43.72174423960347" lon="10.857161745524273"><ele>24.0</ele><time>2026-04-28T08:05:21Z</time></trkpt><trkpt lat="43.72176606631436" lon="10.856953492526273"><ele>24.0</ele><time>2026-04-28T08:05:22Z</time></trkpt><trkpt lat="43.721787704460404" lon="10.856747038559382"><ele>24.0</ele><time>2026-04-28T08:05:23Z</time></trkpt><trkpt lat="43.72180693955351" lon="10.856550505015672"><ele>24.0</ele><time>2026-04-28T08:05:24Z</time></trkpt><trkpt lat="43.721824574241666" lon="10.856367681448532"><ele>23.75</ele><time>2026-04-28T08:05:25Z</time></trkpt><trkpt lat="43.72184170598542" lon="10.856190072277522"><ele>23.5</ele><time>2026-04-28T08:05:26Z</time></trkpt><trkpt lat="43.7218579558081" lon="10.85602160609432"><ele>23.25</ele><time>2026-04-28T08:05:27Z</time></trkpt><trkpt lat="43.72187440221657" lon="10.855850697055446"><ele>23.0</ele><time>2026-04-28T08:05:28Z</time></trkpt><trkpt lat="43.72189049613121" lon="10.85568322650348"><ele>23.0</ele><time>2026-04-28T08:05:29Z</time></trkpt><trkpt lat="43.7219045713689" lon="10.855536761943334"><ele>23.0</ele><time>2026-04-28T08:05:30Z</time></trkpt><trkpt lat="43.72191953230469" lon="10.85538431690837"><ele>23.0</ele><time>2026-04-28T08:05:31Z</time></trkpt><trkpt lat="43.721920154586364" lon="10.855223317002933"><ele>23.0</ele><time>2026-04-28T08:05:32Z</time></trkpt><trkpt lat="43.72194163660966" lon="10.85507016603674"><ele>23.0</ele><time>2026-04-28T08:05:33Z</time></trkpt><trkpt lat="43.721954107647775" lon="10.854923007695593"><ele>23.0</ele><time>2026-04-28T08:05:34Z</time></trkpt><trkpt lat="43.72198325869347" lon="10.854790615956542"><ele>23.0</ele><time>2026-04-28T08:05:35Z</time></trkpt><trkpt lat="43.72199875236022" lon="10.85466099625252"><ele>23.0</ele><time>2026-04-28T08:05:36Z</time></trkpt><trkpt lat="43.72201700957712" lon="10.854518546865226"><ele>23.0</ele><time>2026-04-28T08:05:37Z</time></trkpt><trkpt lat="43.722026878005096" lon="10.854361748858702"><ele>23.0</ele><time>2026-04-28T08:05:38Z</time></trkpt><trkpt lat="43.722061099764204" lon="10.854222110818148"><ele>23.25</ele><time>2026-04-28T08:05:39Z</time></trkpt><trkpt lat="43.72208714844314" lon="10.854073435268116"><ele>23.5</ele><time>2026-04-28T08:05:40Z</time></trkpt><trkpt lat="43.7221198663922" lon="10.853899463829782"><ele>23.75</ele><time>2026-04-28T08:05:41Z</time></trkpt><trkpt lat="43.72214978047549" lon="10.853681535663021"><ele>24.0</ele><time>2026-04-28T08:05:42Z</time></trkpt><trkpt lat="43.72222877566982" lon="10.853438214371987"><ele>24.333333333333336</ele><time>2026-04-28T08:05:43Z</time></trkpt><trkpt lat="43.722294170952075" lon="10.853188791593256"><ele>24.666666666666668</ele><time>2026-04-28T08:05:44Z</time></trkpt><trkpt lat="43.7223592029303" lon="10.852939298809359"><ele>25.0</ele><time>2026-04-28T08:05:45Z</time></trkpt><trkpt lat="43.72242866659226" lon="10.852673017973995"><ele>25.0</ele><time>2026-04-28T08:05:46Z</time></trkpt><trkpt lat="43.72249353217042" lon="10.852424363235155"><ele>25.0</ele><time>2026-04-28T08:05:47Z</time></trkpt><trkpt lat="43.722553676521656" lon="10.852193806838654"><ele>25.0</ele><time>2026-04-28T08:05:48Z</time></trkpt><trkpt lat="43.72261026680874" lon="10.851976874511873"><ele>25.0</ele><time>2026-04-28T08:05:49Z</time></trkpt><trkpt lat="43.72266227364916" lon="10.851777512314632"><ele>25.0</ele><time>2026-04-28T08:05:50Z</time></trkpt><trkpt lat="43.72270549556493" lon="10.851611826021173"><ele>25.0</ele><time>2026-04-28T08:05:51Z</time></trkpt><trkpt lat="43.72273795614467" lon="10.851487392173645"><ele>25.0</ele><time>2026-04-28T08:05:52Z</time></trkpt><trkpt lat="43.722764319263455" lon="10.851386332248925"><ele>25.0</ele><time>2026-04-28T08:05:53Z</time></trkpt><trkpt lat="43.72279655865629" lon="10.851262746204085"><ele>25.0</ele><time>2026-04-28T08:05:56Z</time></trkpt><trkpt lat="43.72282059294876" lon="10.85117061357896"><ele>25.0</ele><time>2026-04-28T08:05:57Z</time></trkpt><trkpt lat="43.72285194662289" lon="10.851050422832376"><ele>25.0</ele><time>2026-04-28T08:05:58Z</time></trkpt><trkpt lat="43.722888078752185" lon="10.850911914459205"><ele>25.0</ele><time>2026-04-28T08:05:59Z</time></trkpt><trkpt lat="43.72292256105091" lon="10.850779730616914"><ele>25.0</ele><time>2026-04-28T08:06:00Z</time></trkpt><trkpt lat="43.72295706527382" lon="10.850647460416713"><ele>25.0</ele><time>2026-04-28T08:06:01Z</time></trkpt><trkpt lat="43.722994274343044" lon="10.850503822887232"><ele>25.0</ele><time>2026-04-28T08:06:02Z</time></trkpt><trkpt lat="43.722977261940734" lon="10.8503417203532"><ele>25.0</ele><time>2026-04-28T08:06:03Z</time></trkpt><trkpt lat="43.7230061696131" lon="10.850222047856352"><ele>25.0</ele><time>2026-04-28T08:06:04Z</time></trkpt><trkpt lat="43.72304415805546" lon="10.850096509150358"><ele>25.4</ele><time>2026-04-28T08:06:05Z</time></trkpt><trkpt lat="43.72308043090993" lon="10.84996351390878"><ele>25.8</ele><time>2026-04-28T08:06:06Z</time></trkpt><trkpt lat="43.72315651802618" lon="10.849867820275838"><ele>26.200000000000003</ele><time>2026-04-28T08:06:07Z</time></trkpt><trkpt lat="43.72318551089677" lon="10.849754925050652"><ele>26.6</ele><time>2026-04-28T08:06:08Z</time></trkpt><trkpt lat="43.72321782892532" lon="10.849628220717712"><ele>27.0</ele><time>2026-04-28T08:06:09Z</time></trkpt><trkpt lat="43.72325766715851" lon="10.849472039678366"><ele>27.0</ele><time>2026-04-28T08:06:10Z</time></trkpt><trkpt lat="43.723300731334646" lon="10.849303212003916"><ele>27.0</ele><time>2026-04-28T08:06:11Z</time></trkpt><trkpt lat="43.72334678675817" lon="10.849122657325275"><ele>27.0</ele><time>2026-04-28T08:06:12Z</time></trkpt><trkpt lat="43.72338762352536" lon="10.848956979871234"><ele>27.0</ele><time>2026-04-28T08:06:13Z</time></trkpt><trkpt lat="43.72342166676605" lon="10.848806728072013"><ele>26.8</ele><time>2026-04-28T08:06:14Z</time></trkpt><trkpt lat="43.72345457324211" lon="10.848661493634253"><ele>26.6</ele><time>2026-04-28T08:06:15Z</time></trkpt><trkpt lat="43.7234856557513" lon="10.84852430823968"><ele>26.400000000000002</ele><time>2026-04-28T08:06:16Z</time></trkpt><trkpt lat="43.72351651247735" lon="10.848379632815233"><ele>26.200000000000003</ele><time>2026-04-28T08:06:17Z</time></trkpt><trkpt lat="43.72354764105991" lon="10.848236066109509"><ele>26.0</ele><time>2026-04-28T08:06:18Z</time></trkpt><trkpt lat="43.72357797767503" lon="10.84809615192544"><ele>26.333333333333332</ele><time>2026-04-28T08:06:19Z</time></trkpt><trkpt lat="43.72360498216166" lon="10.84797160576608"><ele>26.666666666666664</ele><time>2026-04-28T08:06:20Z</time></trkpt><trkpt lat="43.723630052047646" lon="10.847855982143392"><ele>27.0</ele><time>2026-04-28T08:06:21Z</time></trkpt><trkpt lat="43.723654328736124" lon="10.847744016637156"><ele>27.333333333333336</ele><time>2026-04-28T08:06:22.001Z</time></trkpt><trkpt lat="43.72367950162494" lon="10.847627917749364"><ele>27.666666666666668</ele><time>2026-04-28T08:06:23.001Z</time></trkpt><trkpt lat="43.72370355495848" lon="10.84751698260365"><ele>28.0</ele><time>2026-04-28T08:06:24.001Z</time></trkpt><trkpt lat="43.72372901177121" lon="10.847399574334712"><ele>28.0</ele><time>2026-04-28T08:06:25.001Z</time></trkpt><trkpt lat="43.72375793360417" lon="10.84726665269019"><ele>28.0</ele><time>2026-04-28T08:06:26.001Z</time></trkpt><trkpt lat="43.72378984498324" lon="10.847120225352882"><ele>28.0</ele><time>2026-04-28T08:06:27.001Z</time></trkpt><trkpt lat="43.72382483223658" lon="10.846959684579426"><ele>28.0</ele><time>2026-04-28T08:06:28.001Z</time></trkpt><trkpt lat="43.72386145222956" lon="10.846791651741842"><ele>28.25</ele><time>2026-04-28T08:06:29.001Z</time></trkpt><trkpt lat="43.723893497273195" lon="10.846644611309902"><ele>28.5</ele><time>2026-04-28T08:06:30.001Z</time></trkpt><trkpt lat="43.72392515577895" lon="10.846499344428985"><ele>28.75</ele><time>2026-04-28T08:06:31.001Z</time></trkpt><trkpt lat="43.72396211979802" lon="10.84632973304901"><ele>29.0</ele><time>2026-04-28T08:06:32.001Z</time></trkpt><trkpt lat="43.724002984255854" lon="10.846135024262338"><ele>29.0</ele><time>2026-04-28T08:06:33.001Z</time></trkpt><trkpt lat="43.72404475886708" lon="10.84592854568743"><ele>29.0</ele><time>2026-04-28T08:06:34.001Z</time></trkpt><trkpt lat="43.72408238660193" lon="10.845732867364067"><ele>29.0</ele><time>2026-04-28T08:06:35.001Z</time></trkpt><trkpt lat="43.724120288666626" lon="10.845527354398024"><ele>29.0</ele><time>2026-04-28T08:06:36.001Z</time></trkpt><trkpt lat="43.72416161127446" lon="10.845301314139569"><ele>29.0</ele><time>2026-04-28T08:06:37.001Z</time></trkpt><trkpt lat="43.72420281333107" lon="10.84507593329773"><ele>29.0</ele><time>2026-04-28T08:06:38.001Z</time></trkpt><trkpt lat="43.724237420909716" lon="10.844872972992343"><ele>28.5</ele><time>2026-04-28T08:06:39.001Z</time></trkpt><trkpt lat="43.72426375124292" lon="10.84469413249322"><ele>28.0</ele><time>2026-04-28T08:06:40.001Z</time></trkpt><trkpt lat="43.724290369166745" lon="10.844499719394912"><ele>27.5</ele><time>2026-04-28T08:06:41.001Z</time></trkpt><trkpt lat="43.724310376124386" lon="10.844284779640342"><ele>27.0</ele><time>2026-04-28T08:06:42.001Z</time></trkpt><trkpt lat="43.72432708565391" lon="10.844067802020517"><ele>27.0</ele><time>2026-04-28T08:06:43.001Z</time></trkpt><trkpt lat="43.72433103142493" lon="10.843838899380161"><ele>27.0</ele><time>2026-04-28T08:06:44.001Z</time></trkpt><trkpt lat="43.724347054344726" lon="10.843600544570338"><ele>27.0</ele><time>2026-04-28T08:06:45.001Z</time></trkpt><trkpt lat="43.72435894397717" lon="10.843348257739198"><ele>26.333333333333336</ele><time>2026-04-28T08:06:46.001Z</time></trkpt><trkpt lat="43.724366804525744" lon="10.843099017574716"><ele>25.666666666666668</ele><time>2026-04-28T08:06:47.001Z</time></trkpt><trkpt lat="43.72438909401163" lon="10.842850795098602"><ele>25.0</ele><time>2026-04-28T08:06:48.001Z</time></trkpt><trkpt lat="43.724390570911936" lon="10.842599004325713"><ele>24.333333333333336</ele><time>2026-04-28T08:06:49.001Z</time></trkpt><trkpt lat="43.72438989499653" lon="10.84234049934859"><ele>23.666666666666668</ele><time>2026-04-28T08:06:50.001Z</time></trkpt><trkpt lat="43.72438412034113" lon="10.842078761185366"><ele>23.0</ele><time>2026-04-28T08:06:51.001Z</time></trkpt><trkpt lat="43.724374499755996" lon="10.841814243513305"><ele>23.0</ele><time>2026-04-28T08:06:52.001Z</time></trkpt><trkpt lat="43.72435999479387" lon="10.841553892111575"><ele>23.0</ele><time>2026-04-28T08:06:53.001Z</time></trkpt><trkpt lat="43.72434092585381" lon="10.841314707346463"><ele>23.0</ele><time>2026-04-28T08:06:54.001Z</time></trkpt><trkpt lat="43.724305266286464" lon="10.841096705833488"><ele>23.333333333333336</ele><time>2026-04-28T08:06:55.001Z</time></trkpt><trkpt lat="43.72428327964439" lon="10.840886312881073"><ele>23.666666666666668</ele><time>2026-04-28T08:06:56.001Z</time></trkpt><trkpt lat="43.72425678823759" lon="10.840680289965064"><ele>24.0</ele><time>2026-04-28T08:06:57.001Z</time></trkpt><trkpt lat="43.72422669918067" lon="10.84046927462776"><ele>24.0</ele><time>2026-04-28T08:06:58.001Z</time></trkpt><trkpt lat="43.72419290268418" lon="10.840256091499265"><ele>24.0</ele><time>2026-04-28T08:06:59.001Z</time></trkpt><trkpt lat="43.72415430343491" lon="10.840048272332956"><ele>24.0</ele><time>2026-04-28T08:07:00.001Z</time></trkpt><trkpt lat="43.72411002978828" lon="10.839833916920544"><ele>24.333333333333336</ele><time>2026-04-28T08:07:01.001Z</time></trkpt><trkpt lat="43.72406361456102" lon="10.83962135431435"><ele>24.666666666666668</ele><time>2026-04-28T08:07:02.001Z</time></trkpt><trkpt lat="43.724014160868784" lon="10.839403611010272"><ele>25.0</ele><time>2026-04-28T08:07:03.001Z</time></trkpt><trkpt lat="43.723960575378946" lon="10.839182947756507"><ele>25.333333333333336</ele><time>2026-04-28T08:07:04.001Z</time></trkpt><trkpt lat="43.723898646517725" lon="10.838958439531947"><ele>25.666666666666664</ele><time>2026-04-28T08:07:05.001Z</time></trkpt><trkpt lat="43.723832818663375" lon="10.838732583841955"><ele>26.0</ele><time>2026-04-28T08:07:06.001Z</time></trkpt><trkpt lat="43.72375870547535" lon="10.838499073971123"><ele>25.333333333333332</ele><time>2026-04-28T08:07:07.001Z</time></trkpt><trkpt lat="43.723682747478705" lon="10.838268814756345"><ele>24.666666666666664</ele><time>2026-04-28T08:07:08.001Z</time></trkpt><trkpt lat="43.723602161455524" lon="10.838042337744918"><ele>24.0</ele><time>2026-04-28T08:07:09.001Z</time></trkpt><trkpt lat="43.72351817354622" lon="10.837818616730985"><ele>24.0</ele><time>2026-04-28T08:07:10.001Z</time></trkpt><trkpt lat="43.72342760668401" lon="10.837599070307068"><ele>24.0</ele><time>2026-04-28T08:07:11.001Z</time></trkpt><trkpt lat="43.72333071564617" lon="10.837380230375121"><ele>24.0</ele><time>2026-04-28T08:07:12.001Z</time></trkpt><trkpt lat="43.72322910649182" lon="10.837163307793569"><ele>24.0</ele><time>2026-04-28T08:07:13.001Z</time></trkpt><trkpt lat="43.72312290612782" lon="10.836947973956734"><ele>24.0</ele><time>2026-04-28T08:07:14Z</time></trkpt><trkpt lat="43.72302903750855" lon="10.836712060492234"><ele>24.0</ele><time>2026-04-28T08:07:15Z</time></trkpt><trkpt lat="43.72292116443102" lon="10.83648745470957"><ele>24.0</ele><time>2026-04-28T08:07:16Z</time></trkpt><trkpt lat="43.722795079546195" lon="10.836267792829428"><ele>24.0</ele><time>2026-04-28T08:07:17Z</time></trkpt><trkpt lat="43.722684251554156" lon="10.836037086665455"><ele>24.0</ele><time>2026-04-28T08:07:18Z</time></trkpt><trkpt lat="43.72258319005707" lon="10.835828140921079"><ele>24.0</ele><time>2026-04-28T08:07:19Z</time></trkpt><trkpt lat="43.7224884116267" lon="10.835624245048995"><ele>24.0</ele><time>2026-04-28T08:07:20Z</time></trkpt><trkpt lat="43.72240568385498" lon="10.83542891130105"><ele>24.0</ele><time>2026-04-28T08:07:21Z</time></trkpt><trkpt lat="43.72234683206841" lon="10.835237670618323"><ele>24.666666666666664</ele><time>2026-04-28T08:07:22Z</time></trkpt><trkpt lat="43.722308890157414" lon="10.835046190187255"><ele>25.333333333333332</ele><time>2026-04-28T08:07:23Z</time></trkpt><trkpt lat="43.72229261657139" lon="10.83484567323617"><ele>26.0</ele><time>2026-04-28T08:07:24Z</time></trkpt><trkpt lat="43.722310688506866" lon="10.834623885670265"><ele>26.0</ele><time>2026-04-28T08:07:25Z</time></trkpt><trkpt lat="43.72233606051496" lon="10.834395389449762"><ele>26.0</ele><time>2026-04-28T08:07:26Z</time></trkpt><trkpt lat="43.72237274294805" lon="10.834156700237445"><ele>26.0</ele><time>2026-04-28T08:07:27Z</time></trkpt><trkpt lat="43.722416058065406" lon="10.83391358147894"><ele>26.0</ele><time>2026-04-28T08:07:28Z</time></trkpt><trkpt lat="43.722456484589344" lon="10.833683326743925"><ele>26.0</ele><time>2026-04-28T08:07:29Z</time></trkpt><trkpt lat="43.722480581126554" lon="10.833454677673368"><ele>26.0</ele><time>2026-04-28T08:07:30Z</time></trkpt><trkpt lat="43.722523422664615" lon="10.833226470287274"><ele>25.666666666666664</ele><time>2026-04-28T08:07:31Z</time></trkpt><trkpt lat="43.72256643860369" lon="10.832987210267785"><ele>25.333333333333336</ele><time>2026-04-28T08:07:32Z</time></trkpt><trkpt lat="43.722624667351994" lon="10.832744432170033"><ele>25.0</ele><time>2026-04-28T08:07:33Z</time></trkpt><trkpt lat="43.72267101048464" lon="10.832488348702446"><ele>24.666666666666668</ele><time>2026-04-28T08:07:34Z</time></trkpt><trkpt lat="43.72271754206017" lon="10.832235480240929"><ele>24.333333333333336</ele><time>2026-04-28T08:07:35Z</time></trkpt><trkpt lat="43.722761238129905" lon="10.831998023399644"><ele>24.0</ele><time>2026-04-28T08:07:36Z</time></trkpt><trkpt lat="43.722805202583295" lon="10.83175767587196"><ele>24.666666666666664</ele><time>2026-04-28T08:07:37Z</time></trkpt><trkpt lat="43.722848938541034" lon="10.831518796443174"><ele>25.333333333333332</ele><time>2026-04-28T08:07:38Z</time></trkpt><trkpt lat="43.72289247226271" lon="10.83127296319441"><ele>26.0</ele><time>2026-04-28T08:07:39Z</time></trkpt><trkpt lat="43.72293517124604" lon="10.831030821400102"><ele>25.333333333333332</ele><time>2026-04-28T08:07:40Z</time></trkpt><trkpt lat="43.72297796049478" lon="10.830787117766683"><ele>24.666666666666664</ele><time>2026-04-28T08:07:41Z</time></trkpt><trkpt lat="43.72302034481496" lon="10.830545720640076"><ele>24.0</ele><time>2026-04-28T08:07:42Z</time></trkpt><trkpt lat="43.72306336605423" lon="10.830300696101805"><ele>23.666666666666668</ele><time>2026-04-28T08:07:43Z</time></trkpt><trkpt lat="43.72310425246861" lon="10.830065972587736"><ele>23.333333333333336</ele><time>2026-04-28T08:07:44Z</time></trkpt><trkpt lat="43.72314556557581" lon="10.829827843525505"><ele>23.0</ele><time>2026-04-28T08:07:45Z</time></trkpt><trkpt lat="43.723188751961466" lon="10.829587541019654"><ele>23.0</ele><time>2026-04-28T08:07:46Z</time></trkpt><trkpt lat="43.72322907399621" lon="10.829362435786807"><ele>23.0</ele><time>2026-04-28T08:07:47Z</time></trkpt><trkpt lat="43.723268188819006" lon="10.829139980442164"><ele>23.0</ele><time>2026-04-28T08:07:48Z</time></trkpt><trkpt lat="43.7233096069709" lon="10.82891567637176"><ele>23.0</ele><time>2026-04-28T08:07:49Z</time></trkpt><trkpt lat="43.723346950704645" lon="10.828703488449708"><ele>23.0</ele><time>2026-04-28T08:07:50Z</time></trkpt><trkpt lat="43.72338240559095" lon="10.828504262364595"><ele>23.0</ele><time>2026-04-28T08:07:51Z</time></trkpt><trkpt lat="43.7234171406972" lon="10.82830691277398"><ele>23.0</ele><time>2026-04-28T08:07:52Z</time></trkpt><trkpt lat="43.723428615014676" lon="10.828100779926116"><ele>23.0</ele><time>2026-04-28T08:07:53Z</time></trkpt><trkpt lat="43.723458794383326" lon="10.82791657832165"><ele>23.0</ele><time>2026-04-28T08:07:54Z</time></trkpt><trkpt lat="43.723487053514546" lon="10.827746071039233"><ele>23.0</ele><time>2026-04-28T08:07:55Z</time></trkpt><trkpt lat="43.72351070127208" lon="10.827594170797182"><ele>22.799999999999997</ele><time>2026-04-28T08:07:56Z</time></trkpt><trkpt lat="43.72356782547128" lon="10.82745844302715"><ele>22.6</ele><time>2026-04-28T08:07:57Z</time></trkpt><trkpt lat="43.723591961780016" lon="10.827323800659741"><ele>22.4</ele><time>2026-04-28T08:07:58Z</time></trkpt><trkpt lat="43.72361332545943" lon="10.827201603626628"><ele>22.200000000000003</ele><time>2026-04-28T08:07:59Z</time></trkpt><trkpt lat="43.723636381782384" lon="10.827070785250678"><ele>22.0</ele><time>2026-04-28T08:08:00Z</time></trkpt><trkpt lat="43.72366004201469" lon="10.826936540542516"><ele>21.75</ele><time>2026-04-28T08:08:01Z</time></trkpt><trkpt lat="43.72368513978663" lon="10.82679413937436"><ele>21.5</ele><time>2026-04-28T08:08:02Z</time></trkpt><trkpt lat="43.72371270359741" lon="10.826637746137374"><ele>21.25</ele><time>2026-04-28T08:08:03Z</time></trkpt><trkpt lat="43.72372902156862" lon="10.826464270326051"><ele>21.0</ele><time>2026-04-28T08:08:04Z</time></trkpt><trkpt lat="43.72376656446445" lon="10.826287274075197"><ele>21.0</ele><time>2026-04-28T08:08:05Z</time></trkpt><trkpt lat="43.72379851529708" lon="10.826100990517064"><ele>21.0</ele><time>2026-04-28T08:08:06Z</time></trkpt><trkpt lat="43.72382515084356" lon="10.825906699989403"><ele>21.0</ele><time>2026-04-28T08:08:07Z</time></trkpt><trkpt lat="43.723875142077816" lon="10.825716093038512"><ele>21.0</ele><time>2026-04-28T08:08:08Z</time></trkpt><trkpt lat="43.72391026080151" lon="10.82551683431936"><ele>20.666666666666668</ele><time>2026-04-28T08:08:09Z</time></trkpt><trkpt lat="43.7239466239879" lon="10.825310514770756"><ele>20.333333333333336</ele><time>2026-04-28T08:08:10Z</time></trkpt><trkpt lat="43.72398381060485" lon="10.825099523296684"><ele>20.0</ele><time>2026-04-28T08:08:11Z</time></trkpt><trkpt lat="43.72402160750176" lon="10.824885068990785"><ele>20.0</ele><time>2026-04-28T08:08:12Z</time></trkpt><trkpt lat="43.72406054333184" lon="10.824665218283515"><ele>20.0</ele><time>2026-04-28T08:08:13Z</time></trkpt><trkpt lat="43.72409929953117" lon="10.824448062329484"><ele>20.0</ele><time>2026-04-28T08:08:14Z</time></trkpt><trkpt lat="43.72413862675764" lon="10.824227706886774"><ele>20.0</ele><time>2026-04-28T08:08:15Z</time></trkpt><trkpt lat="43.724175459749404" lon="10.824021326926356"><ele>20.0</ele><time>2026-04-28T08:08:16.001Z</time></trkpt><trkpt lat="43.724211191539055" lon="10.823821116972173"><ele>20.0</ele><time>2026-04-28T08:08:17.001Z</time></trkpt><trkpt lat="43.724247102816356" lon="10.823610759718905"><ele>20.25</ele><time>2026-04-28T08:08:18.001Z</time></trkpt><trkpt lat="43.724283046243755" lon="10.823398037374323"><ele>20.5</ele><time>2026-04-28T08:08:19.001Z</time></trkpt><trkpt lat="43.72431669532336" lon="10.823198893290416"><ele>20.75</ele><time>2026-04-28T08:08:20.001Z</time></trkpt><trkpt lat="43.72434032464528" lon="10.823019444701357"><ele>21.0</ele><time>2026-04-28T08:08:21.001Z</time></trkpt><trkpt lat="43.724364056981365" lon="10.822860224613823"><ele>21.0</ele><time>2026-04-28T08:08:22.001Z</time></trkpt><trkpt lat="43.7243920070817" lon="10.822741034522766"><ele>21.0</ele><time>2026-04-28T08:08:23.001Z</time></trkpt><trkpt lat="43.724423525043086" lon="10.822657102675745"><ele>21.0</ele><time>2026-04-28T08:08:24.001Z</time></trkpt><trkpt lat="43.72446846764619" lon="10.82258911878836"><ele>21.0</ele><time>2026-04-28T08:08:25.001Z</time></trkpt><trkpt lat="43.72451991838078" lon="10.822537095446748"><ele>21.0</ele><time>2026-04-28T08:08:26.001Z</time></trkpt><trkpt lat="43.72463408008104" lon="10.822446845210699"><ele>21.0</ele><time>2026-04-28T08:08:28.001Z</time></trkpt><trkpt lat="43.72472167987476" lon="10.822396224606475"><ele>20.75</ele><time>2026-04-28T08:08:29.001Z</time></trkpt><trkpt lat="43.724815195433585" lon="10.822330751618079"><ele>20.5</ele><time>2026-04-28T08:08:30.001Z</time></trkpt><trkpt lat="43.724904882996945" lon="10.822245272325633"><ele>20.25</ele><time>2026-04-28T08:08:31.001Z</time></trkpt><trkpt lat="43.72499778325152" lon="10.822137327697188"><ele>20.0</ele><time>2026-04-28T08:08:32.001Z</time></trkpt><trkpt lat="43.72507102730881" lon="10.822003150240327"><ele>20.0</ele><time>2026-04-28T08:08:33.001Z</time></trkpt><trkpt lat="43.725138686971725" lon="10.821851048532059"><ele>20.0</ele><time>2026-04-28T08:08:34.001Z</time></trkpt><trkpt lat="43.725228127168954" lon="10.82169521692232"><ele>20.0</ele><time>2026-04-28T08:08:35.001Z</time></trkpt><trkpt lat="43.72531555460715" lon="10.821523012469353"><ele>20.0</ele><time>2026-04-28T08:08:36.001Z</time></trkpt><trkpt lat="43.72540354354151" lon="10.821370622181112"><ele>20.75</ele><time>2026-04-28T08:08:37.001Z</time></trkpt><trkpt lat="43.72548836914442" lon="10.821231190482763"><ele>21.5</ele><time>2026-04-28T08:08:38.001Z</time></trkpt><trkpt lat="43.725571534321766" lon="10.821101070592665"><ele>22.25</ele><time>2026-04-28T08:08:39.001Z</time></trkpt><trkpt lat="43.725665079478745" lon="10.820964897572114"><ele>23.0</ele><time>2026-04-28T08:08:40.001Z</time></trkpt><trkpt lat="43.72578159552806" lon="10.820824276174754"><ele>23.0</ele><time>2026-04-28T08:08:41.001Z</time></trkpt><trkpt lat="43.725917620162804" lon="10.820669337614836"><ele>23.0</ele><time>2026-04-28T08:08:42.001Z</time></trkpt><trkpt lat="43.72606240312791" lon="10.820512471578581"><ele>23.0</ele><time>2026-04-28T08:08:43.001Z</time></trkpt><trkpt lat="43.726208517987025" lon="10.820363339674962"><ele>24.0</ele><time>2026-04-28T08:08:44.001Z</time></trkpt><trkpt lat="43.72634996952585" lon="10.820222896642196"><ele>25.0</ele><time>2026-04-28T08:08:45.001Z</time></trkpt><trkpt lat="43.726488559454445" lon="10.820092981876952"><ele>26.0</ele><time>2026-04-28T08:08:46.001Z</time></trkpt><trkpt lat="43.72662153586404" lon="10.819975203948774"><ele>26.0</ele><time>2026-04-28T08:08:47.001Z</time></trkpt><trkpt lat="43.726749908660395" lon="10.819866549848147"><ele>26.0</ele><time>2026-04-28T08:08:48.001Z</time></trkpt><trkpt lat="43.72687974443877" lon="10.819761040946673"><ele>26.0</ele><time>2026-04-28T08:08:49.001Z</time></trkpt><trkpt lat="43.727007121875474" lon="10.819662135823503"><ele>26.0</ele><time>2026-04-28T08:08:50.001Z</time></trkpt><trkpt lat="43.72712248214108" lon="10.81957449232732"><ele>26.0</ele><time>2026-04-28T08:08:51.001Z</time></trkpt><trkpt lat="43.72722446570154" lon="10.819474094231516"><ele>26.0</ele><time>2026-04-28T08:08:52.001Z</time></trkpt><trkpt lat="43.72733021009162" lon="10.819403844049004"><ele>26.0</ele><time>2026-04-28T08:08:53.001Z</time></trkpt><trkpt lat="43.72743727898821" lon="10.819355097277892"><ele>26.0</ele><time>2026-04-28T08:08:54.001Z</time></trkpt><trkpt lat="43.72752275095224" lon="10.819275773951615"><ele>26.0</ele><time>2026-04-28T08:08:55.001Z</time></trkpt><trkpt lat="43.72762025223454" lon="10.81924015381696"><ele>26.0</ele><time>2026-04-28T08:08:56.001Z</time></trkpt><trkpt lat="43.72770282723037" lon="10.819190831377007"><ele>26.0</ele><time>2026-04-28T08:08:57.001Z</time></trkpt><trkpt lat="43.72777709751805" lon="10.819147456916937"><ele>26.0</ele><time>2026-04-28T08:08:58.001Z</time></trkpt><trkpt lat="43.72785952119805" lon="10.819100561482147"><ele>26.0</ele><time>2026-04-28T08:08:59.001Z</time></trkpt><trkpt lat="43.7279627033306" lon="10.819045326882524"><ele>27.25</ele><time>2026-04-28T08:09:00.001Z</time></trkpt><trkpt lat="43.728078532073226" lon="10.81898481422037"><ele>28.5</ele><time>2026-04-28T08:09:01.001Z</time></trkpt><trkpt lat="43.7282016353658" lon="10.818922119413449"><ele>29.75</ele><time>2026-04-28T08:09:02.001Z</time></trkpt><trkpt lat="43.728304522980494" lon="10.81887028105322"><ele>31.0</ele><time>2026-04-28T08:09:03.001Z</time></trkpt><trkpt lat="43.728420032598606" lon="10.818813939571362"><ele>31.0</ele><time>2026-04-28T08:09:04.001Z</time></trkpt><trkpt lat="43.728543541239176" lon="10.818735324751138"><ele>31.0</ele><time>2026-04-28T08:09:05.001Z</time></trkpt><trkpt lat="43.72866998963472" lon="10.81868724171601"><ele>31.0</ele><time>2026-04-28T08:09:06.001Z</time></trkpt><trkpt lat="43.72879499379026" lon="10.818615606952843"><ele>31.0</ele><time>2026-04-28T08:09:07.001Z</time></trkpt><trkpt lat="43.72892642452367" lon="10.818542659247262"><ele>30.333333333333336</ele><time>2026-04-28T08:09:08.001Z</time></trkpt><trkpt lat="43.72909257038192" lon="10.8184593936329"><ele>29.666666666666664</ele><time>2026-04-28T08:09:09.001Z</time></trkpt><trkpt lat="43.729278868641785" lon="10.818386864981084"><ele>29.0</ele><time>2026-04-28T08:09:10.001Z</time></trkpt><trkpt lat="43.72946097884742" lon="10.818276312313326"><ele>26.666666666666664</ele><time>2026-04-28T08:09:11.001Z</time></trkpt><trkpt lat="43.72965152518776" lon="10.818199391688768"><ele>24.333333333333332</ele><time>2026-04-28T08:09:12.001Z</time></trkpt><trkpt lat="43.72983165456065" lon="10.8181135609414"><ele>22.0</ele><time>2026-04-28T08:09:13.001Z</time></trkpt><trkpt lat="43.730012244528474" lon="10.81801699782451"><ele>22.0</ele><time>2026-04-28T08:09:14.001Z</time></trkpt><trkpt lat="43.73019685701402" lon="10.817922844338378"><ele>22.0</ele><time>2026-04-28T08:09:15.001Z</time></trkpt><trkpt lat="43.730387297245855" lon="10.81782551482549"><ele>22.0</ele><time>2026-04-28T08:09:16.001Z</time></trkpt><trkpt lat="43.73056983179207" lon="10.817732699537848"><ele>21.666666666666664</ele><time>2026-04-28T08:09:17.001Z</time></trkpt><trkpt lat="43.73073972366611" lon="10.817647425540418"><ele>21.333333333333332</ele><time>2026-04-28T08:09:18.001Z</time></trkpt><trkpt lat="43.730900522155636" lon="10.817553508028746"><ele>21.0</ele><time>2026-04-28T08:09:19.001Z</time></trkpt><trkpt lat="43.731062901628164" lon="10.817445324815257"><ele>21.0</ele><time>2026-04-28T08:09:20.001Z</time></trkpt><trkpt lat="43.731231516194555" lon="10.817317376083256"><ele>21.0</ele><time>2026-04-28T08:09:21.001Z</time></trkpt><trkpt lat="43.73138803758918" lon="10.817179165772805"><ele>21.0</ele><time>2026-04-28T08:09:22.001Z</time></trkpt><trkpt lat="43.731537053019295" lon="10.817046692836621"><ele>21.0</ele><time>2026-04-28T08:09:23.001Z</time></trkpt><trkpt lat="43.73170055545767" lon="10.816902283147424"><ele>21.0</ele><time>2026-04-28T08:09:24.001Z</time></trkpt><trkpt lat="43.731831252883566" lon="10.816709456901616"><ele>21.0</ele><time>2026-04-28T08:09:25.001Z</time></trkpt><trkpt lat="43.73197500289233" lon="10.816516013557074"><ele>22.333333333333336</ele><time>2026-04-28T08:09:26.001Z</time></trkpt><trkpt lat="43.732117428297315" lon="10.816305819822064"><ele>23.666666666666668</ele><time>2026-04-28T08:09:27.001Z</time></trkpt><trkpt lat="43.73225473416697" lon="10.816078346950182"><ele>25.0</ele><time>2026-04-28T08:09:28.001Z</time></trkpt><trkpt lat="43.73238374544594" lon="10.815834321694995"><ele>25.0</ele><time>2026-04-28T08:09:29.001Z</time></trkpt><trkpt lat="43.73250152184902" lon="10.815576569201628"><ele>25.0</ele><time>2026-04-28T08:09:30.001Z</time></trkpt><trkpt lat="43.732617780472474" lon="10.815297271147056"><ele>24.666666666666668</ele><time>2026-04-28T08:09:31.001Z</time></trkpt><trkpt lat="43.732722168827124" lon="10.815017605111166"><ele>24.333333333333336</ele><time>2026-04-28T08:09:32.001Z</time></trkpt><trkpt lat="43.73280685174986" lon="10.814741597317331"><ele>24.0</ele><time>2026-04-28T08:09:33.001Z</time></trkpt><trkpt lat="43.73287765145628" lon="10.814451558811058"><ele>32.5</ele><time>2026-04-28T08:09:34.001Z</time></trkpt><trkpt lat="43.73294291562295" lon="10.814151627411716"><ele>41.0</ele><time>2026-04-28T08:09:35.001Z</time></trkpt><trkpt lat="43.733008791947746" lon="10.813843413812208"><ele>41.0</ele><time>2026-04-28T08:09:36.001Z</time></trkpt><trkpt lat="43.733077490910084" lon="10.813542322402167"><ele>41.0</ele><time>2026-04-28T08:09:37.001Z</time></trkpt><trkpt lat="43.733149914487" lon="10.813253550856235"><ele>41.0</ele><time>2026-04-28T08:09:38.001Z</time></trkpt><trkpt lat="43.73321939850656" lon="10.812968362109956"><ele>39.666666666666664</ele><time>2026-04-28T08:09:39.001Z</time></trkpt><trkpt lat="43.73328901678776" lon="10.812678340455761"><ele>38.333333333333336</ele><time>2026-04-28T08:09:40.001Z</time></trkpt><trkpt lat="43.73335900567184" lon="10.812396480254487"><ele>37.0</ele><time>2026-04-28T08:09:41.001Z</time></trkpt><trkpt lat="43.733426625840245" lon="10.812120723739891"><ele>38.0</ele><time>2026-04-28T08:09:42.001Z</time></trkpt><trkpt lat="43.73349271963077" lon="10.811851197484152"><ele>39.0</ele><time>2026-04-28T08:09:43.001Z</time></trkpt><trkpt lat="43.733563935929936" lon="10.811585912222293"><ele>40.0</ele><time>2026-04-28T08:09:44.001Z</time></trkpt><trkpt lat="43.73363818464247" lon="10.81131235227765"><ele>40.0</ele><time>2026-04-28T08:09:45.001Z</time></trkpt><trkpt lat="43.73371773291784" lon="10.811035364975904"><ele>40.0</ele><time>2026-04-28T08:09:46.001Z</time></trkpt><trkpt lat="43.73380122957446" lon="10.810760484072754"><ele>40.0</ele><time>2026-04-28T08:09:47.001Z</time></trkpt><trkpt lat="43.73388924524957" lon="10.810491631683735"><ele>36.66666666666667</ele><time>2026-04-28T08:09:48.001Z</time></trkpt><trkpt lat="43.73398515325908" lon="10.81023805148094"><ele>33.333333333333336</ele><time>2026-04-28T08:09:49.001Z</time></trkpt><trkpt lat="43.7340824049289" lon="10.809986527218541"><ele>30.0</ele><time>2026-04-28T08:09:50.001Z</time></trkpt><trkpt lat="43.734183730954726" lon="10.80974423381938"><ele>28.0</ele><time>2026-04-28T08:09:51.001Z</time></trkpt><trkpt lat="43.734283462833055" lon="10.809518104310587"><ele>26.0</ele><time>2026-04-28T08:09:52.001Z</time></trkpt><trkpt lat="43.734382774386034" lon="10.809310646545105"><ele>24.0</ele><time>2026-04-28T08:09:53.001Z</time></trkpt><trkpt lat="43.734480694368656" lon="10.809120491601446"><ele>24.0</ele><time>2026-04-28T08:09:54.001Z</time></trkpt><trkpt lat="43.734575118863596" lon="10.808939470659327"><ele>24.0</ele><time>2026-04-28T08:09:55.001Z</time></trkpt><trkpt lat="43.73466345390782" lon="10.80877024179731"><ele>24.0</ele><time>2026-04-28T08:09:56.001Z</time></trkpt><trkpt lat="43.73473908467918" lon="10.808629627978624"><ele>24.0</ele><time>2026-04-28T08:09:57.001Z</time></trkpt><trkpt lat="43.734808684240654" lon="10.808515382167553"><ele>23.666666666666668</ele><time>2026-04-28T08:09:58.001Z</time></trkpt><trkpt lat="43.734876396713155" lon="10.80842554466361"><ele>23.333333333333332</ele><time>2026-04-28T08:09:59.001Z</time></trkpt><trkpt lat="43.734930204383055" lon="10.808374350570638"><ele>23.0</ele><time>2026-04-28T08:10:00.001Z</time></trkpt><trkpt lat="43.735012473600094" lon="10.808337283406612"><ele>22.666666666666664</ele><time>2026-04-28T08:10:03.001Z</time></trkpt><trkpt lat="43.7351122421764" lon="10.80830388699533"><ele>22.333333333333332</ele><time>2026-04-28T08:10:05.001Z</time></trkpt><trkpt lat="43.735177659234026" lon="10.808260706378533"><ele>22.0</ele><time>2026-04-28T08:10:06.001Z</time></trkpt><trkpt lat="43.735236191843924" lon="10.808186480392372"><ele>22.0</ele><time>2026-04-28T08:10:07.001Z</time></trkpt><trkpt lat="43.73526745140773" lon="10.808086501839622"><ele>22.0</ele><time>2026-04-28T08:10:08.001Z</time></trkpt><trkpt lat="43.73528393642916" lon="10.80796226992971"><ele>22.0</ele><time>2026-04-28T08:10:09.001Z</time></trkpt><trkpt lat="43.735294174901256" lon="10.807804924748044"><ele>22.0</ele><time>2026-04-28T08:10:10.001Z</time></trkpt><trkpt lat="43.735316060331435" lon="10.807635327793461"><ele>22.0</ele><time>2026-04-28T08:10:11.001Z</time></trkpt><trkpt lat="43.73537135622256" lon="10.807460999676923"><ele>22.666666666666664</ele><time>2026-04-28T08:10:12.001Z</time></trkpt><trkpt lat="43.73547554157125" lon="10.80731436055118"><ele>23.333333333333332</ele><time>2026-04-28T08:10:13.001Z</time></trkpt><trkpt lat="43.73559009327375" lon="10.807117587219349"><ele>24.0</ele><time>2026-04-28T08:10:14.001Z</time></trkpt><trkpt lat="43.73570658407203" lon="10.806891531547521"><ele>22.666666666666668</ele><time>2026-04-28T08:10:15.001Z</time></trkpt><trkpt lat="43.73583462040151" lon="10.806675774563594"><ele>21.333333333333336</ele><time>2026-04-28T08:10:16.001Z</time></trkpt><trkpt lat="43.73596002914385" lon="10.806458287671003"><ele>20.0</ele><time>2026-04-28T08:10:17.001Z</time></trkpt><trkpt lat="43.736081999921204" lon="10.806254534050387"><ele>20.0</ele><time>2026-04-28T08:10:18.001Z</time></trkpt><trkpt lat="43.736204972063355" lon="10.806052218164258"><ele>20.0</ele><time>2026-04-28T08:10:19.001Z</time></trkpt><trkpt lat="43.73633755083307" lon="10.805823869744817"><ele>20.0</ele><time>2026-04-28T08:10:20.001Z</time></trkpt><trkpt lat="43.7364618904693" lon="10.80560232777353"><ele>19.333333333333336</ele><time>2026-04-28T08:10:21.001Z</time></trkpt><trkpt lat="43.7365888211683" lon="10.805388969144413"><ele>18.666666666666668</ele><time>2026-04-28T08:10:22.001Z</time></trkpt><trkpt lat="43.73670904045462" lon="10.805193336385953"><ele>18.0</ele><time>2026-04-28T08:10:23.001Z</time></trkpt><trkpt lat="43.73682148820037" lon="10.804991505163859"><ele>17.333333333333332</ele><time>2026-04-28T08:10:24.001Z</time></trkpt><trkpt lat="43.736922198790865" lon="10.804760940381795"><ele>16.666666666666664</ele><time>2026-04-28T08:10:25.001Z</time></trkpt><trkpt lat="43.73700533623284" lon="10.804503755735531"><ele>16.0</ele><time>2026-04-28T08:10:26.001Z</time></trkpt><trkpt lat="43.73707668174194" lon="10.8042353769617"><ele>16.0</ele><time>2026-04-28T08:10:27.001Z</time></trkpt><trkpt lat="43.737150932990204" lon="10.803981522601047"><ele>16.0</ele><time>2026-04-28T08:10:28.001Z</time></trkpt><trkpt lat="43.737183337561575" lon="10.803731630287466"><ele>16.0</ele><time>2026-04-28T08:10:29.001Z</time></trkpt><trkpt lat="43.73721875000835" lon="10.803482830459716"><ele>15.666666666666666</ele><time>2026-04-28T08:10:30.001Z</time></trkpt><trkpt lat="43.73725315839074" lon="10.80324763804513"><ele>15.333333333333332</ele><time>2026-04-28T08:10:31.001Z</time></trkpt><trkpt lat="43.737262912568056" lon="10.803021982778256"><ele>15.0</ele><time>2026-04-28T08:10:32.001Z</time></trkpt><trkpt lat="43.73726392185032" lon="10.80279347250036"><ele>15.0</ele><time>2026-04-28T08:10:33.001Z</time></trkpt><trkpt lat="43.73724201142962" lon="10.802575099718068"><ele>15.0</ele><time>2026-04-28T08:10:34.001Z</time></trkpt><trkpt lat="43.73723384667905" lon="10.802389405209302"><ele>15.0</ele><time>2026-04-28T08:10:35.001Z</time></trkpt><trkpt lat="43.73722428951208" lon="10.802228029636996"><ele>15.0</ele><time>2026-04-28T08:10:36.001Z</time></trkpt><trkpt lat="43.73722484390579" lon="10.802083186518795"><ele>15.0</ele><time>2026-04-28T08:10:37.001Z</time></trkpt><trkpt lat="43.73724144523769" lon="10.801951470302326"><ele>15.0</ele><time>2026-04-28T08:10:38.001Z</time></trkpt><trkpt lat="43.73726789141907" lon="10.801815644436065"><ele>15.0</ele><time>2026-04-28T08:10:39.001Z</time></trkpt><trkpt lat="43.73728712095427" lon="10.801664967201999"><ele>15.0</ele><time>2026-04-28T08:10:40.001Z</time></trkpt><trkpt lat="43.73727634789251" lon="10.80152612880884"><ele>15.0</ele><time>2026-04-28T08:10:41.001Z</time></trkpt><trkpt lat="43.7372354673997" lon="10.801398032894229"><ele>15.25</ele><time>2026-04-28T08:10:42.001Z</time></trkpt><trkpt lat="43.73718967476282" lon="10.801278427337717"><ele>15.5</ele><time>2026-04-28T08:10:43.001Z</time></trkpt><trkpt lat="43.73717405664174" lon="10.801145201925642"><ele>15.75</ele><time>2026-04-28T08:10:44.001Z</time></trkpt><trkpt lat="43.73717306834776" lon="10.800983745785498"><ele>16.0</ele><time>2026-04-28T08:10:45.001Z</time></trkpt><trkpt lat="43.73716691255358" lon="10.800789950372177"><ele>16.333333333333332</ele><time>2026-04-28T08:10:46.001Z</time></trkpt><trkpt lat="43.73715529778835" lon="10.800545249666673"><ele>16.666666666666668</ele><time>2026-04-28T08:10:47.001Z</time></trkpt><trkpt lat="43.737141827608596" lon="10.800302793717577"><ele>17.0</ele><time>2026-04-28T08:10:48.001Z</time></trkpt><trkpt lat="43.73713835855144" lon="10.800061770460498"><ele>17.0</ele><time>2026-04-28T08:10:49.001Z</time></trkpt><trkpt lat="43.7371372748977" lon="10.799811892294668"><ele>17.0</ele><time>2026-04-28T08:10:50.001Z</time></trkpt><trkpt lat="43.73714551433414" lon="10.79955662378631"><ele>17.0</ele><time>2026-04-28T08:10:51.001Z</time></trkpt><trkpt lat="43.73716118244201" lon="10.79929607142359"><ele>17.0</ele><time>2026-04-28T08:10:52.001Z</time></trkpt><trkpt lat="43.73719573289983" lon="10.799024780615925"><ele>17.0</ele><time>2026-04-28T08:10:53.001Z</time></trkpt><trkpt lat="43.73724817924302" lon="10.798760110102188"><ele>17.0</ele><time>2026-04-28T08:10:54.001Z</time></trkpt><trkpt lat="43.73731799853617" lon="10.798508817551616"><ele>16.666666666666668</ele><time>2026-04-28T08:10:55.001Z</time></trkpt><trkpt lat="43.73740332338029" lon="10.798263917473356"><ele>16.333333333333332</ele><time>2026-04-28T08:10:56.001Z</time></trkpt><trkpt lat="43.73749888481149" lon="10.798023663982839"><ele>16.0</ele><time>2026-04-28T08:10:57.001Z</time></trkpt><trkpt lat="43.73760519069778" lon="10.797787715917957"><ele>15.0</ele><time>2026-04-28T08:10:58.001Z</time></trkpt><trkpt lat="43.73772676896035" lon="10.797559944224774"><ele>14.0</ele><time>2026-04-28T08:10:59.001Z</time></trkpt><trkpt lat="43.73786404031589" lon="10.797329956166015"><ele>13.0</ele><time>2026-04-28T08:11:00.001Z</time></trkpt><trkpt lat="43.73801306088635" lon="10.797092088675724"><ele>13.0</ele><time>2026-04-28T08:11:01.001Z</time></trkpt><trkpt lat="43.73816230670729" lon="10.796853643096771"><ele>13.0</ele><time>2026-04-28T08:11:02.001Z</time></trkpt><trkpt lat="43.738307732455766" lon="10.796620108712832"><ele>14.0</ele><time>2026-04-28T08:11:03.001Z</time></trkpt><trkpt lat="43.73845274854873" lon="10.796382547312103"><ele>15.0</ele><time>2026-04-28T08:11:04.001Z</time></trkpt><trkpt lat="43.73859827455849" lon="10.79613974235788"><ele>15.0</ele><time>2026-04-28T08:11:05.001Z</time></trkpt><trkpt lat="43.738745831788634" lon="10.795893661479424"><ele>15.0</ele><time>2026-04-28T08:11:06.001Z</time></trkpt><trkpt lat="43.73889174518022" lon="10.795650055635868"><ele>15.0</ele><time>2026-04-28T08:11:07.001Z</time></trkpt><trkpt lat="43.739035936143594" lon="10.795408522688891"><ele>15.0</ele><time>2026-04-28T08:11:08.001Z</time></trkpt><trkpt lat="43.739181349630925" lon="10.79516765222242"><ele>15.0</ele><time>2026-04-28T08:11:09.001Z</time></trkpt><trkpt lat="43.739331119581976" lon="10.794920547211415"><ele>15.0</ele><time>2026-04-28T08:11:10.001Z</time></trkpt><trkpt lat="43.739487372680365" lon="10.794665161966257"><ele>15.0</ele><time>2026-04-28T08:11:11.001Z</time></trkpt><trkpt lat="43.73964471842529" lon="10.794406712977395"><ele>15.0</ele><time>2026-04-28T08:11:12.001Z</time></trkpt><trkpt lat="43.73980227933857" lon="10.79414378338951"><ele>14.0</ele><time>2026-04-28T08:11:13.001Z</time></trkpt><trkpt lat="43.739960890600976" lon="10.793879670903742"><ele>13.0</ele><time>2026-04-28T08:11:14.001Z</time></trkpt><trkpt lat="43.740119638189185" lon="10.793614888324944"><ele>13.0</ele><time>2026-04-28T08:11:15.001Z</time></trkpt><trkpt lat="43.74027775719663" lon="10.79334939905899"><ele>13.0</ele><time>2026-04-28T08:11:16.001Z</time></trkpt><trkpt lat="43.74043419024888" lon="10.79308561027259"><ele>13.0</ele><time>2026-04-28T08:11:17.001Z</time></trkpt><trkpt lat="43.7405892651176" lon="10.792824645298145"><ele>13.0</ele><time>2026-04-28T08:11:18.001Z</time></trkpt><trkpt lat="43.740746183692615" lon="10.792564423213395"><ele>13.0</ele><time>2026-04-28T08:11:19.002Z</time></trkpt><trkpt lat="43.74090353098662" lon="10.792304874881967"><ele>13.0</ele><time>2026-04-28T08:11:20.002Z</time></trkpt><trkpt lat="43.74105982450305" lon="10.792045657032732"><ele>12.5</ele><time>2026-04-28T08:11:21.002Z</time></trkpt><trkpt lat="43.741212854592234" lon="10.791789355687982"><ele>12.0</ele><time>2026-04-28T08:11:22.002Z</time></trkpt><trkpt lat="43.74135885051662" lon="10.791549766486284"><ele>12.0</ele><time>2026-04-28T08:11:23.002Z</time></trkpt><trkpt lat="43.741497576449305" lon="10.791327694103678"><ele>12.0</ele><time>2026-04-28T08:11:24.002Z</time></trkpt><trkpt lat="43.74163541146438" lon="10.791104604113071"><ele>12.0</ele><time>2026-04-28T08:11:25.002Z</time></trkpt><trkpt lat="43.74177027758046" lon="10.790880319513795"><ele>12.333333333333332</ele><time>2026-04-28T08:11:26.001Z</time></trkpt><trkpt lat="43.74189531203169" lon="10.790667921347975"><ele>12.666666666666666</ele><time>2026-04-28T08:11:27.001Z</time></trkpt><trkpt lat="43.74200953294542" lon="10.790460501603844"><ele>13.0</ele><time>2026-04-28T08:11:28.001Z</time></trkpt><trkpt lat="43.74211660017546" lon="10.790246310271344"><ele>13.333333333333332</ele><time>2026-04-28T08:11:29.001Z</time></trkpt><trkpt lat="43.74221608185396" lon="10.79002708892038"><ele>13.666666666666668</ele><time>2026-04-28T08:11:30.001Z</time></trkpt><trkpt lat="43.74230958893198" lon="10.789793695412607"><ele>14.0</ele><time>2026-04-28T08:11:31.001Z</time></trkpt><trkpt lat="43.742397815469005" lon="10.789550579585798"><ele>14.0</ele><time>2026-04-28T08:11:32.001Z</time></trkpt><trkpt lat="43.74247210161835" lon="10.789307389127565"><ele>14.0</ele><time>2026-04-28T08:11:33.001Z</time></trkpt><trkpt lat="43.7425389802508" lon="10.789079686253213"><ele>14.0</ele><time>2026-04-28T08:11:34.001Z</time></trkpt><trkpt lat="43.74259760692367" lon="10.788852753127905"><ele>14.0</ele><time>2026-04-28T08:11:35.001Z</time></trkpt><trkpt lat="43.74264955769831" lon="10.788617792366725"><ele>14.0</ele><time>2026-04-28T08:11:36.001Z</time></trkpt><trkpt lat="43.742694534023116" lon="10.788364039962069"><ele>14.0</ele><time>2026-04-28T08:11:37.001Z</time></trkpt><trkpt lat="43.74272918689712" lon="10.788102263308089"><ele>13.666666666666668</ele><time>2026-04-28T08:11:38.001Z</time></trkpt><trkpt lat="43.742756776238686" lon="10.787842865077405"><ele>13.333333333333332</ele><time>2026-04-28T08:11:39.001Z</time></trkpt><trkpt lat="43.74277258812844" lon="10.787600660220615"><ele>13.0</ele><time>2026-04-28T08:11:40.001Z</time></trkpt><trkpt lat="43.74278310008896" lon="10.787353451832667"><ele>12.666666666666666</ele><time>2026-04-28T08:11:41.001Z</time></trkpt><trkpt lat="43.742784980672184" lon="10.787120483973869"><ele>12.333333333333332</ele><time>2026-04-28T08:11:42.001Z</time></trkpt><trkpt lat="43.74279665580889" lon="10.786889138086941"><ele>12.0</ele><time>2026-04-28T08:11:43.001Z</time></trkpt><trkpt lat="43.742786174210174" lon="10.786644072656921"><ele>12.0</ele><time>2026-04-28T08:11:44.001Z</time></trkpt><trkpt lat="43.74276619932173" lon="10.786380956326804"><ele>12.0</ele><time>2026-04-28T08:11:45.001Z</time></trkpt><trkpt lat="43.7427377247172" lon="10.786136255238997"><ele>12.0</ele><time>2026-04-28T08:11:46.001Z</time></trkpt><trkpt lat="43.74270091585248" lon="10.78591563067041"><ele>12.0</ele><time>2026-04-28T08:11:47.001Z</time></trkpt><trkpt lat="43.74266232636412" lon="10.785703371580697"><ele>12.0</ele><time>2026-04-28T08:11:48.001Z</time></trkpt><trkpt lat="43.74261997928154" lon="10.785491227173278"><ele>12.0</ele><time>2026-04-28T08:11:49.001Z</time></trkpt><trkpt lat="43.742572575025626" lon="10.785288496040733"><ele>12.25</ele><time>2026-04-28T08:11:50.001Z</time></trkpt><trkpt lat="43.74252299269951" lon="10.785101839580603"><ele>12.5</ele><time>2026-04-28T08:11:51.001Z</time></trkpt><trkpt lat="43.742467962031014" lon="10.784926455704582"><ele>12.75</ele><time>2026-04-28T08:11:52.001Z</time></trkpt><trkpt lat="43.74241106055769" lon="10.78476234765811"><ele>13.0</ele><time>2026-04-28T08:11:53.001Z</time></trkpt><trkpt lat="43.74235450855692" lon="10.784610900995851"><ele>12.999999999999998</ele><time>2026-04-28T08:11:54.001Z</time></trkpt><trkpt lat="43.74230062282473" lon="10.784470861087147"><ele>13.0</ele><time>2026-04-28T08:11:55.001Z</time></trkpt><trkpt lat="43.742250419614486" lon="10.784344987492563"><ele>13.0</ele><time>2026-04-28T08:11:56.001Z</time></trkpt><trkpt lat="43.742207803806785" lon="10.784242999175321"><ele>13.0</ele><time>2026-04-28T08:11:57.001Z</time></trkpt><trkpt lat="43.742171698045375" lon="10.7841588115902"><ele>12.999999999999998</ele><time>2026-04-28T08:11:58.001Z</time></trkpt><trkpt lat="43.742137562497625" lon="10.784081230667576"><ele>13.0</ele><time>2026-04-28T08:11:59.001Z</time></trkpt><trkpt lat="43.74209303037766" lon="10.78400186868226"><ele>13.166666666666666</ele><time>2026-04-28T08:12:00.001Z</time></trkpt><trkpt lat="43.742078471476184" lon="10.783898404414046"><ele>13.333333333333332</ele><time>2026-04-28T08:12:01.001Z</time></trkpt><trkpt lat="43.742074657296975" lon="10.783797616284494"><ele>13.5</ele><time>2026-04-28T08:12:02.001Z</time></trkpt><trkpt lat="43.74206920886297" lon="10.783697111853316"><ele>13.666666666666668</ele><time>2026-04-28T08:12:03.001Z</time></trkpt><trkpt lat="43.74204494746457" lon="10.783610525948191"><ele>13.833333333333334</ele><time>2026-04-28T08:12:04.001Z</time></trkpt><trkpt lat="43.74202005636414" lon="10.783507771698556"><ele>14.0</ele><time>2026-04-28T08:12:05.001Z</time></trkpt><trkpt lat="43.74193400676781" lon="10.783450275036394"><ele>14.500000000000002</ele><time>2026-04-28T08:12:06.001Z</time></trkpt><trkpt lat="43.74184869522683" lon="10.783400597129413"><ele>15.0</ele><time>2026-04-28T08:12:07.001Z</time></trkpt><trkpt lat="43.74176503096289" lon="10.783358152837678"><ele>15.5</ele><time>2026-04-28T08:12:08.001Z</time></trkpt><trkpt lat="43.74169663467457" lon="10.783311277740635"><ele>16.0</ele><time>2026-04-28T08:12:09.001Z</time></trkpt><trkpt lat="43.741633239724344" lon="10.783249179295991"><ele>16.5</ele><time>2026-04-28T08:12:10.001Z</time></trkpt><trkpt lat="43.74157885110976" lon="10.783144201415771"><ele>17.0</ele><time>2026-04-28T08:12:11.001Z</time></trkpt><trkpt lat="43.74150710049766" lon="10.783045316364968"><ele>17.0</ele><time>2026-04-28T08:12:12.001Z</time></trkpt><trkpt lat="43.74143393210888" lon="10.782944477368682"><ele>17.0</ele><time>2026-04-28T08:12:13.001Z</time></trkpt><trkpt lat="43.7413478436285" lon="10.78282583221804"><ele>17.0</ele><time>2026-04-28T08:12:14.001Z</time></trkpt><trkpt lat="43.74125514031927" lon="10.782698704639294"><ele>17.0</ele><time>2026-04-28T08:12:15.001Z</time></trkpt><trkpt lat="43.741157416954785" lon="10.78256849834488"><ele>16.75</ele><time>2026-04-28T08:12:16.001Z</time></trkpt><trkpt lat="43.74106175725619" lon="10.782441662195078"><ele>16.5</ele><time>2026-04-28T08:12:17.001Z</time></trkpt><trkpt lat="43.74097532064264" lon="10.782329243216452"><ele>16.25</ele><time>2026-04-28T08:12:18.001Z</time></trkpt><trkpt lat="43.74088637748736" lon="10.782241012654783"><ele>16.0</ele><time>2026-04-28T08:12:19.001Z</time></trkpt><trkpt lat="43.740807047543456" lon="10.782133538898526"><ele>16.400000000000002</ele><time>2026-04-28T08:12:20.001Z</time></trkpt><trkpt lat="43.740733829404796" lon="10.78200179534771"><ele>16.8</ele><time>2026-04-28T08:12:21.001Z</time></trkpt><trkpt lat="43.74065422911821" lon="10.781897111917308"><ele>17.200000000000003</ele><time>2026-04-28T08:12:22.001Z</time></trkpt><trkpt lat="43.740571591205715" lon="10.78182174313857"><ele>17.6</ele><time>2026-04-28T08:12:23.001Z</time></trkpt><trkpt lat="43.74050254288257" lon="10.781740693347402"><ele>18.0</ele><time>2026-04-28T08:12:24.001Z</time></trkpt><trkpt lat="43.74044369335331" lon="10.781652808998752"><ele>18.0</ele><time>2026-04-28T08:12:25.001Z</time></trkpt><trkpt lat="43.740394538377465" lon="10.781556792610525"><ele>18.0</ele><time>2026-04-28T08:12:26.001Z</time></trkpt><trkpt lat="43.74036114616368" lon="10.7814556249905"><ele>18.0</ele><time>2026-04-28T08:12:27.001Z</time></trkpt><trkpt lat="43.74033538539689" lon="10.781331957878132"><ele>18.0</ele><time>2026-04-28T08:12:28.001Z</time></trkpt><trkpt lat="43.7403160100856" lon="10.78120448424081"><ele>18.0</ele><time>2026-04-28T08:12:29.001Z</time></trkpt><trkpt lat="43.74029859606848" lon="10.781084107446077"><ele>18.0</ele><time>2026-04-28T08:12:30.001Z</time></trkpt><trkpt lat="43.74026522438207" lon="10.7809862867399"><ele>17.4</ele><time>2026-04-28T08:12:31.001Z</time></trkpt><trkpt lat="43.740208265737074" lon="10.780911868454503"><ele>16.8</ele><time>2026-04-28T08:12:32.001Z</time></trkpt><trkpt lat="43.740127585031544" lon="10.78085966637752"><ele>16.2</ele><time>2026-04-28T08:12:33.001Z</time></trkpt><trkpt lat="43.740034384897946" lon="10.780835751935971"><ele>15.6</ele><time>2026-04-28T08:12:34.001Z</time></trkpt><trkpt lat="43.73993609380011" lon="10.78082561859083"><ele>15.0</ele><time>2026-04-28T08:12:35.001Z</time></trkpt><trkpt lat="43.739845178444845" lon="10.780787931470174"><ele>15.0</ele><time>2026-04-28T08:12:36.001Z</time></trkpt><trkpt lat="43.73975731547187" lon="10.780713471556686"><ele>15.0</ele><time>2026-04-28T08:12:37.001Z</time></trkpt><trkpt lat="43.73967677822803" lon="10.780605162168472"><ele>15.0</ele><time>2026-04-28T08:12:38.001Z</time></trkpt><trkpt lat="43.73959439001407" lon="10.780482621005152"><ele>15.0</ele><time>2026-04-28T08:12:39.001Z</time></trkpt><trkpt lat="43.739498241385384" lon="10.780345474698715"><ele>15.0</ele><time>2026-04-28T08:12:40.001Z</time></trkpt><trkpt lat="43.73939034246983" lon="10.780200844280923"><ele>15.0</ele><time>2026-04-28T08:12:41.001Z</time></trkpt><trkpt lat="43.739276813316145" lon="10.780018370238968"><ele>15.0</ele><time>2026-04-28T08:12:42.001Z</time></trkpt><trkpt lat="43.739143584301154" lon="10.779835431583455"><ele>14.666666666666668</ele><time>2026-04-28T08:12:43.001Z</time></trkpt><trkpt lat="43.73899753695999" lon="10.779659226022035"><ele>14.333333333333334</ele><time>2026-04-28T08:12:44.001Z</time></trkpt><trkpt lat="43.738854614093874" lon="10.779453760314679"><ele>14.0</ele><time>2026-04-28T08:12:45.001Z</time></trkpt><trkpt lat="43.73870840894363" lon="10.779254661510624"><ele>14.0</ele><time>2026-04-28T08:12:46.001Z</time></trkpt><trkpt lat="43.73855345019966" lon="10.77905034266375"><ele>14.0</ele><time>2026-04-28T08:12:47.001Z</time></trkpt><trkpt lat="43.73838696107205" lon="10.778830017497482"><ele>14.0</ele><time>2026-04-28T08:12:48.001Z</time></trkpt><trkpt lat="43.73822066867295" lon="10.778605261066291"><ele>14.333333333333334</ele><time>2026-04-28T08:12:49.001Z</time></trkpt><trkpt lat="43.73806371892879" lon="10.778389329714095"><ele>14.666666666666668</ele><time>2026-04-28T08:12:50.001Z</time></trkpt><trkpt lat="43.73791791602689" lon="10.778181890827371"><ele>15.0</ele><time>2026-04-28T08:12:51.001Z</time></trkpt><trkpt lat="43.73777598068497" lon="10.777980785093574"><ele>15.0</ele><time>2026-04-28T08:12:52.001Z</time></trkpt><trkpt lat="43.737633563961026" lon="10.777787620854253"><ele>15.0</ele><time>2026-04-28T08:12:53.001Z</time></trkpt><trkpt lat="43.737491485585316" lon="10.777594299932"><ele>15.0</ele><time>2026-04-28T08:12:54.001Z</time></trkpt><trkpt lat="43.737349998130604" lon="10.777395928829279"><ele>15.0</ele><time>2026-04-28T08:12:55.001Z</time></trkpt><trkpt lat="43.737205964220934" lon="10.777189049920327"><ele>15.0</ele><time>2026-04-28T08:12:56.001Z</time></trkpt><trkpt lat="43.737059236033424" lon="10.776970615678747"><ele>15.0</ele><time>2026-04-28T08:12:57.001Z</time></trkpt><trkpt lat="43.736922921058714" lon="10.77675379508602"><ele>14.666666666666668</ele><time>2026-04-28T08:12:58.001Z</time></trkpt><trkpt lat="43.736805815090385" lon="10.776552633044998"><ele>14.333333333333334</ele><time>2026-04-28T08:12:59.001Z</time></trkpt><trkpt lat="43.73668918727292" lon="10.776355968402376"><ele>14.0</ele><time>2026-04-28T08:13:00.001Z</time></trkpt><trkpt lat="43.736575862617855" lon="10.77616118212978"><ele>14.333333333333334</ele><time>2026-04-28T08:13:01.001Z</time></trkpt><trkpt lat="43.736460874474645" lon="10.775960413131045"><ele>14.666666666666668</ele><time>2026-04-28T08:13:02.001Z</time></trkpt><trkpt lat="43.73635568663904" lon="10.775767174438336"><ele>15.0</ele><time>2026-04-28T08:13:03.001Z</time></trkpt><trkpt lat="43.736262130190894" lon="10.775584356175687"><ele>15.0</ele><time>2026-04-28T08:13:04.001Z</time></trkpt><trkpt lat="43.73617796585734" lon="10.775410657981256"><ele>15.0</ele><time>2026-04-28T08:13:05.001Z</time></trkpt><trkpt lat="43.73610299005047" lon="10.775246375786285"><ele>15.0</ele><time>2026-04-28T08:13:06.001Z</time></trkpt><trkpt lat="43.73604257850652" lon="10.775090904879713"><ele>15.0</ele><time>2026-04-28T08:13:07.001Z</time></trkpt><trkpt lat="43.73599342771388" lon="10.77493697221995"><ele>14.8</ele><time>2026-04-28T08:13:08.001Z</time></trkpt><trkpt lat="43.73595886865856" lon="10.774786199536614"><ele>14.6</ele><time>2026-04-28T08:13:09.001Z</time></trkpt><trkpt lat="43.73593778913448" lon="10.774636256494373"><ele>14.399999999999999</ele><time>2026-04-28T08:13:10.001Z</time></trkpt><trkpt lat="43.73592848384037" lon="10.774478352445907"><ele>14.2</ele><time>2026-04-28T08:13:11.001Z</time></trkpt><trkpt lat="43.73592439598708" lon="10.77433066118244"><ele>14.0</ele><time>2026-04-28T08:13:12.001Z</time></trkpt><trkpt lat="43.73590344940245" lon="10.77420935052094"><ele>13.799999999999999</ele><time>2026-04-28T08:13:13.001Z</time></trkpt><trkpt lat="43.735857970757415" lon="10.774113200919412"><ele>13.599999999999998</ele><time>2026-04-28T08:13:14.001Z</time></trkpt><trkpt lat="43.73578368103894" lon="10.774043671169665"><ele>13.4</ele><time>2026-04-28T08:13:15.001Z</time></trkpt><trkpt lat="43.7356872383313" lon="10.773978712994733"><ele>13.2</ele><time>2026-04-28T08:13:16.001Z</time></trkpt><trkpt lat="43.73558594758876" lon="10.77389674313906"><ele>13.0</ele><time>2026-04-28T08:13:17.001Z</time></trkpt><trkpt lat="43.73549284574647" lon="10.773773863565683"><ele>13.0</ele><time>2026-04-28T08:13:18.001Z</time></trkpt><trkpt lat="43.73540648492555" lon="10.773609091288778"><ele>13.0</ele><time>2026-04-28T08:13:19.001Z</time></trkpt><trkpt lat="43.735339439729366" lon="10.773402790249653"><ele>13.0</ele><time>2026-04-28T08:13:20.001Z</time></trkpt><trkpt lat="43.73524855413024" lon="10.773206042451632"><ele>13.333333333333332</ele><time>2026-04-28T08:13:21.001Z</time></trkpt><trkpt lat="43.73517132809518" lon="10.772988562969738"><ele>13.666666666666668</ele><time>2026-04-28T08:13:22.001Z</time></trkpt><trkpt lat="43.73508759358481" lon="10.772758690125585"><ele>14.0</ele><time>2026-04-28T08:13:23.001Z</time></trkpt><trkpt lat="43.73500778813725" lon="10.772518815857097"><ele>14.0</ele><time>2026-04-28T08:13:24.001Z</time></trkpt><trkpt lat="43.734925451564365" lon="10.772286705987785"><ele>14.0</ele><time>2026-04-28T08:13:25.001Z</time></trkpt><trkpt lat="43.73483448056808" lon="10.77204764824282"><ele>14.0</ele><time>2026-04-28T08:13:26.001Z</time></trkpt><trkpt lat="43.734752806848086" lon="10.771813941093844"><ele>14.0</ele><time>2026-04-28T08:13:27.001Z</time></trkpt><trkpt lat="43.73466914311374" lon="10.771585041197039"><ele>14.0</ele><time>2026-04-28T08:13:28.001Z</time></trkpt><trkpt lat="43.734580553593545" lon="10.771356508491836"><ele>14.0</ele><time>2026-04-28T08:13:29.001Z</time></trkpt><trkpt lat="43.734491636776184" lon="10.771124849233178"><ele>14.0</ele><time>2026-04-28T08:13:30.001Z</time></trkpt><trkpt lat="43.73440329787718" lon="10.770890411319135"><ele>14.0</ele><time>2026-04-28T08:13:31.001Z</time></trkpt><trkpt lat="43.73431691190585" lon="10.770652564449618"><ele>14.0</ele><time>2026-04-28T08:13:32.001Z</time></trkpt><trkpt lat="43.734227213363624" lon="10.770416596603189"><ele>14.333333333333334</ele><time>2026-04-28T08:13:33.001Z</time></trkpt><trkpt lat="43.73413873166142" lon="10.770177824494944"><ele>14.666666666666668</ele><time>2026-04-28T08:13:34.001Z</time></trkpt><trkpt lat="43.73404854715588" lon="10.769941659555341"><ele>15.0</ele><time>2026-04-28T08:13:35.001Z</time></trkpt><trkpt lat="43.7339603564499" lon="10.769708637851968"><ele>15.0</ele><time>2026-04-28T08:13:36.001Z</time></trkpt><trkpt lat="43.73387610231536" lon="10.769465553562288"><ele>15.0</ele><time>2026-04-28T08:13:37.001Z</time></trkpt><trkpt lat="43.733787692536715" lon="10.769212161842766"><ele>15.0</ele><time>2026-04-28T08:13:38.001Z</time></trkpt><trkpt lat="43.733696078514285" lon="10.76895692663863"><ele>15.0</ele><time>2026-04-28T08:13:39.001Z</time></trkpt><trkpt lat="43.73360279910317" lon="10.768708065191126"><ele>15.0</ele><time>2026-04-28T08:13:40.001Z</time></trkpt><trkpt lat="43.733513730481" lon="10.768477560400315"><ele>15.0</ele><time>2026-04-28T08:13:41.001Z</time></trkpt><trkpt lat="43.73342953757046" lon="10.768257269802364"><ele>15.0</ele><time>2026-04-28T08:13:42.001Z</time></trkpt><trkpt lat="43.73334840267886" lon="10.768036519952195"><ele>15.0</ele><time>2026-04-28T08:13:43.001Z</time></trkpt><trkpt lat="43.73326508947029" lon="10.767806918156799"><ele>15.0</ele><time>2026-04-28T08:13:44.001Z</time></trkpt><trkpt lat="43.73317411407401" lon="10.767567355325724"><ele>15.0</ele><time>2026-04-28T08:13:45.001Z</time></trkpt><trkpt lat="43.733090966566365" lon="10.767340084243587"><ele>15.0</ele><time>2026-04-28T08:13:46.001Z</time></trkpt><trkpt lat="43.73300550776803" lon="10.767135555986274"><ele>15.0</ele><time>2026-04-28T08:13:47.001Z</time></trkpt><trkpt lat="43.7329264344074" lon="10.766921346694232"><ele>14.666666666666668</ele><time>2026-04-28T08:13:48.001Z</time></trkpt><trkpt lat="43.73285278892092" lon="10.766707113184635"><ele>14.333333333333334</ele><time>2026-04-28T08:13:49.001Z</time></trkpt><trkpt lat="43.73276975765511" lon="10.766490921541669"><ele>14.0</ele><time>2026-04-28T08:13:50.001Z</time></trkpt><trkpt lat="43.73268547895314" lon="10.766252371812039"><ele>14.333333333333334</ele><time>2026-04-28T08:13:51.001Z</time></trkpt><trkpt lat="43.732591751311645" lon="10.76602194015895"><ele>14.666666666666668</ele><time>2026-04-28T08:13:52.001Z</time></trkpt><trkpt lat="43.73250709321791" lon="10.765809513170929"><ele>15.0</ele><time>2026-04-28T08:13:53.001Z</time></trkpt><trkpt lat="43.73242833292722" lon="10.765617013310637"><ele>15.0</ele><time>2026-04-28T08:13:54.001Z</time></trkpt><trkpt lat="43.732355686620124" lon="10.765435259676035"><ele>15.0</ele><time>2026-04-28T08:13:55.001Z</time></trkpt><trkpt lat="43.73228497025402" lon="10.765264005374533"><ele>15.0</ele><time>2026-04-28T08:13:56.001Z</time></trkpt><trkpt lat="43.73221928964656" lon="10.765110626221652"><ele>15.0</ele><time>2026-04-28T08:13:57.001Z</time></trkpt><trkpt lat="43.732159364520655" lon="10.764974017863679"><ele>15.166666666666666</ele><time>2026-04-28T08:13:58.001Z</time></trkpt><trkpt lat="43.73210984975693" lon="10.764864578477882"><ele>15.333333333333332</ele><time>2026-04-28T08:13:59.001Z</time></trkpt><trkpt lat="43.73206351467332" lon="10.764769418932678"><ele>15.5</ele><time>2026-04-28T08:14:00.001Z</time></trkpt><trkpt lat="43.73202363043288" lon="10.764693916406216"><ele>15.666666666666666</ele><time>2026-04-28T08:14:01.001Z</time></trkpt><trkpt lat="43.73195792802466" lon="10.764570260986572"><ele>15.833333333333332</ele><time>2026-04-28T08:14:03.001Z</time></trkpt><trkpt lat="43.73191188065131" lon="10.764480236086493"><ele>16.0</ele><time>2026-04-28T08:14:05.001Z</time></trkpt><trkpt lat="43.731878498696574" lon="10.764401009910138"><ele>15.8</ele><time>2026-04-28T08:14:08.001Z</time></trkpt><trkpt lat="43.73183353835314" lon="10.764279713034309"><ele>15.600000000000001</ele><time>2026-04-28T08:14:23.001Z</time></trkpt><trkpt lat="43.73178424064675" lon="10.764163423899927"><ele>15.4</ele><time>2026-04-28T08:14:24.001Z</time></trkpt><trkpt lat="43.73172043281001" lon="10.764050784430829"><ele>15.2</ele><time>2026-04-28T08:14:25.001Z</time></trkpt><trkpt lat="43.73164631261746" lon="10.763936773357498"><ele>15.0</ele><time>2026-04-28T08:14:26.001Z</time></trkpt><trkpt lat="43.73158159774896" lon="10.763834620654873"><ele>15.0</ele><time>2026-04-28T08:14:27.001Z</time></trkpt><trkpt lat="43.731520968170116" lon="10.763738520411517"><ele>15.0</ele><time>2026-04-28T08:14:28.001Z</time></trkpt><trkpt lat="43.7314585415848" lon="10.763643710316444"><ele>15.0</ele><time>2026-04-28T08:14:29.001Z</time></trkpt><trkpt lat="43.73139312872659" lon="10.763551185417855"><ele>15.0</ele><time>2026-04-28T08:14:30.001Z</time></trkpt><trkpt lat="43.73132201354906" lon="10.763465200819264"><ele>15.0</ele><time>2026-04-28T08:14:31.001Z</time></trkpt><trkpt lat="43.731254402943875" lon="10.763375043089798"><ele>15.0</ele><time>2026-04-28T08:14:32.001Z</time></trkpt><trkpt lat="43.73118525792217" lon="10.763287093482981"><ele>15.0</ele><time>2026-04-28T08:14:33.001Z</time></trkpt><trkpt lat="43.73111643635151" lon="10.763196459696484"><ele>15.0</ele><time>2026-04-28T08:14:34.001Z</time></trkpt><trkpt lat="43.73105849353079" lon="10.763120723786765"><ele>15.0</ele><time>2026-04-28T08:14:35.001Z</time></trkpt><trkpt lat="43.73101187999447" lon="10.763057814757046"><ele>15.0</ele><time>2026-04-28T08:14:36.001Z</time></trkpt><trkpt lat="43.73093975574002" lon="10.762966224287592"><ele>15.0</ele><time>2026-04-28T08:14:38.001Z</time></trkpt><trkpt lat="43.730880476965" lon="10.762887389687696"><ele>15.0</ele><time>2026-04-28T08:15:01.001Z</time></trkpt><trkpt lat="43.730827235830056" lon="10.762836554982206"><ele>15.0</ele><time>2026-04-28T08:15:02.001Z</time></trkpt><trkpt lat="43.73079395842336" lon="10.762760713134382"><ele>15.0</ele><time>2026-04-28T08:15:03.001Z</time></trkpt><trkpt lat="43.73067966707139" lon="10.762815629748967"><ele>15.0</ele><time>2026-04-28T08:15:04.001Z</time></trkpt><trkpt lat="43.73060345044863" lon="10.76284987407196"><ele>15.0</ele><time>2026-04-28T08:15:05.001Z</time></trkpt><trkpt lat="43.73051657847991" lon="10.762922395332431"><ele>15.0</ele><time>2026-04-28T08:15:06.001Z</time></trkpt><trkpt lat="43.73041990801963" lon="10.763012834972121"><ele>15.0</ele><time>2026-04-28T08:15:07.001Z</time></trkpt><trkpt lat="43.73032216614037" lon="10.763116057493397"><ele>15.0</ele><time>2026-04-28T08:15:08.001Z</time></trkpt><trkpt lat="43.73022184808289" lon="10.763235387823899"><ele>15.0</ele><time>2026-04-28T08:15:09.001Z</time></trkpt><trkpt lat="43.73009884664569" lon="10.763355200193269"><ele>15.0</ele><time>2026-04-28T08:15:10.001Z</time></trkpt><trkpt lat="43.72996744291947" lon="10.76345812138116"><ele>15.0</ele><time>2026-04-28T08:15:11.001Z</time></trkpt><trkpt lat="43.729844294610686" lon="10.763565571181163"><ele>15.0</ele><time>2026-04-28T08:15:12.001Z</time></trkpt><trkpt lat="43.72972818501818" lon="10.763677747987225"><ele>15.0</ele><time>2026-04-28T08:15:13.001Z</time></trkpt><trkpt lat="43.72960962309803" lon="10.763785352136484"><ele>15.0</ele><time>2026-04-28T08:15:14.001Z</time></trkpt><trkpt lat="43.729487644525506" lon="10.763881770833406"><ele>15.0</ele><time>2026-04-28T08:15:15.001Z</time></trkpt><trkpt lat="43.72936949161136" lon="10.763980738689037"><ele>15.0</ele><time>2026-04-28T08:15:16.001Z</time></trkpt><trkpt lat="43.72925489576064" lon="10.764093210278418"><ele>15.0</ele><time>2026-04-28T08:15:17.001Z</time></trkpt><trkpt lat="43.729127634763124" lon="10.764215178016904"><ele>15.0</ele><time>2026-04-28T08:15:18.001Z</time></trkpt><trkpt lat="43.729006607324074" lon="10.764331507251208"><ele>15.0</ele><time>2026-04-28T08:15:19.001Z</time></trkpt><trkpt lat="43.72888362876738" lon="10.764456195883321"><ele>15.0</ele><time>2026-04-28T08:15:20.001Z</time></trkpt><trkpt lat="43.72875723498144" lon="10.76457892824718"><ele>15.0</ele><time>2026-04-28T08:15:21.001Z</time></trkpt><trkpt lat="43.7286220587758" lon="10.764699164381883"><ele>15.25</ele><time>2026-04-28T08:15:22.001Z</time></trkpt><trkpt lat="43.72849004551488" lon="10.764813294175514"><ele>15.5</ele><time>2026-04-28T08:15:23.001Z</time></trkpt><trkpt lat="43.72836879332898" lon="10.764915442336553"><ele>15.75</ele><time>2026-04-28T08:15:24.001Z</time></trkpt><trkpt lat="43.72825895794847" lon="10.765022133097503"><ele>16.0</ele><time>2026-04-28T08:15:25.001Z</time></trkpt><trkpt lat="43.72814178710284" lon="10.765129782446616"><ele>15.75</ele><time>2026-04-28T08:15:26.001Z</time></trkpt><trkpt lat="43.72802089713063" lon="10.765242118740899"><ele>15.5</ele><time>2026-04-28T08:15:27.001Z</time></trkpt><trkpt lat="43.72789541474884" lon="10.765353113457248"><ele>15.25</ele><time>2026-04-28T08:15:28.001Z</time></trkpt><trkpt lat="43.72776861293901" lon="10.765465241702348"><ele>15.0</ele><time>2026-04-28T08:15:29.001Z</time></trkpt><trkpt lat="43.72764893622204" lon="10.765572247367654"><ele>15.0</ele><time>2026-04-28T08:15:30.001Z</time></trkpt><trkpt lat="43.727527267289624" lon="10.765681332255065"><ele>15.0</ele><time>2026-04-28T08:15:31.001Z</time></trkpt><trkpt lat="43.72740443148941" lon="10.76579224028679"><ele>15.0</ele><time>2026-04-28T08:15:32.001Z</time></trkpt><trkpt lat="43.727279676352346" lon="10.765911956197336"><ele>15.0</ele><time>2026-04-28T08:15:33.001Z</time></trkpt><trkpt lat="43.7271422244309" lon="10.766029146313185"><ele>15.0</ele><time>2026-04-28T08:15:34.001Z</time></trkpt><trkpt lat="43.72701115825728" lon="10.766150407107032"><ele>15.0</ele><time>2026-04-28T08:15:35.001Z</time></trkpt><trkpt lat="43.72688028303297" lon="10.766269706954837"><ele>15.0</ele><time>2026-04-28T08:15:36.001Z</time></trkpt><trkpt lat="43.72675651076369" lon="10.766379909913251"><ele>15.5</ele><time>2026-04-28T08:15:37.001Z</time></trkpt><trkpt lat="43.726642001248294" lon="10.766485596856121"><ele>16.0</ele><time>2026-04-28T08:15:38.001Z</time></trkpt><trkpt lat="43.72653005479402" lon="10.766590035382828"><ele>16.5</ele><time>2026-04-28T08:15:39.001Z</time></trkpt><trkpt lat="43.72641359445913" lon="10.7666945397611"><ele>17.0</ele><time>2026-04-28T08:15:40.001Z</time></trkpt><trkpt lat="43.726291905470035" lon="10.766801903502165"><ele>17.0</ele><time>2026-04-28T08:15:41.001Z</time></trkpt><trkpt lat="43.726171367958315" lon="10.766918793304045"><ele>17.0</ele><time>2026-04-28T08:15:42.001Z</time></trkpt><trkpt lat="43.72605070131549" lon="10.767033310362002"><ele>17.0</ele><time>2026-04-28T08:15:43.001Z</time></trkpt><trkpt lat="43.72592713457007" lon="10.767145904641332"><ele>17.0</ele><time>2026-04-28T08:15:44.001Z</time></trkpt><trkpt lat="43.725802167176894" lon="10.767256956745497"><ele>17.0</ele><time>2026-04-28T08:15:45.001Z</time></trkpt><trkpt lat="43.72567893284069" lon="10.767372007844388"><ele>17.0</ele><time>2026-04-28T08:15:46.001Z</time></trkpt><trkpt lat="43.72556171830512" lon="10.767480149770213"><ele>17.0</ele><time>2026-04-28T08:15:47.001Z</time></trkpt><trkpt lat="43.725442304901094" lon="10.767591041215665"><ele>17.0</ele><time>2026-04-28T08:15:48.001Z</time></trkpt><trkpt lat="43.72532400025269" lon="10.767692716091968"><ele>16.75</ele><time>2026-04-28T08:15:49.001Z</time></trkpt><trkpt lat="43.72521801135709" lon="10.767780449898174"><ele>16.5</ele><time>2026-04-28T08:15:50.001Z</time></trkpt><trkpt lat="43.72511735988186" lon="10.767877343683617"><ele>16.25</ele><time>2026-04-28T08:15:51.001Z</time></trkpt><trkpt lat="43.72501763839259" lon="10.767973392305962"><ele>16.0</ele><time>2026-04-28T08:15:52.001Z</time></trkpt><trkpt lat="43.72490663705897" lon="10.768070455431323"><ele>16.0</ele><time>2026-04-28T08:15:53.001Z</time></trkpt><trkpt lat="43.724789431577015" lon="10.768168697255378"><ele>16.0</ele><time>2026-04-28T08:15:54.001Z</time></trkpt><trkpt lat="43.7246747988893" lon="10.768273388972345"><ele>16.0</ele><time>2026-04-28T08:15:55Z</time></trkpt><trkpt lat="43.72457014708272" lon="10.768375276117837"><ele>16.0</ele><time>2026-04-28T08:15:56Z</time></trkpt><trkpt lat="43.72446847050943" lon="10.768465685988204"><ele>16.25</ele><time>2026-04-28T08:15:57Z</time></trkpt><trkpt lat="43.724372785198916" lon="10.768554974317947"><ele>16.5</ele><time>2026-04-28T08:15:58Z</time></trkpt><trkpt lat="43.72427050805237" lon="10.768642725707275"><ele>16.75</ele><time>2026-04-28T08:15:59Z</time></trkpt><trkpt lat="43.724166892358376" lon="10.768740399687328"><ele>17.0</ele><time>2026-04-28T08:16:00Z</time></trkpt><trkpt lat="43.72405270409812" lon="10.76884518086717"><ele>17.0</ele><time>2026-04-28T08:16:01Z</time></trkpt><trkpt lat="43.72394200731225" lon="10.768949177169779"><ele>17.0</ele><time>2026-04-28T08:16:02Z</time></trkpt><trkpt lat="43.72383269259305" lon="10.769053759685528"><ele>17.0</ele><time>2026-04-28T08:16:03Z</time></trkpt><trkpt lat="43.72372388207865" lon="10.769156711739416"><ele>17.0</ele><time>2026-04-28T08:16:04Z</time></trkpt><trkpt lat="43.723618853830075" lon="10.769251356308128"><ele>17.0</ele><time>2026-04-28T08:16:05Z</time></trkpt><trkpt lat="43.72352372962755" lon="10.769338616943894"><ele>17.0</ele><time>2026-04-28T08:16:06Z</time></trkpt><trkpt lat="43.723425088661" lon="10.769427321666306"><ele>17.0</ele><time>2026-04-28T08:16:07Z</time></trkpt><trkpt lat="43.72331870137876" lon="10.76952061909768"><ele>17.0</ele><time>2026-04-28T08:16:08Z</time></trkpt><trkpt lat="43.72320649882038" lon="10.769623657709545"><ele>17.0</ele><time>2026-04-28T08:16:09Z</time></trkpt><trkpt lat="43.72309161946468" lon="10.769731779929414"><ele>17.0</ele><time>2026-04-28T08:16:10Z</time></trkpt><trkpt lat="43.722987853430645" lon="10.769834830477377"><ele>17.0</ele><time>2026-04-28T08:16:11Z</time></trkpt><trkpt lat="43.72289472925024" lon="10.769924860010368"><ele>17.0</ele><time>2026-04-28T08:16:12Z</time></trkpt><trkpt lat="43.72280420516271" lon="10.770007761634416"><ele>17.0</ele><time>2026-04-28T08:16:13Z</time></trkpt><trkpt lat="43.72270137844568" lon="10.770098666564131"><ele>17.0</ele><time>2026-04-28T08:16:14Z</time></trkpt><trkpt lat="43.72258762813646" lon="10.770199909102438"><ele>17.0</ele><time>2026-04-28T08:16:15Z</time></trkpt><trkpt lat="43.72245813312589" lon="10.770308038144611"><ele>17.0</ele><time>2026-04-28T08:16:16Z</time></trkpt><trkpt lat="43.72233206336861" lon="10.770421900668333"><ele>17.0</ele><time>2026-04-28T08:16:17Z</time></trkpt><trkpt lat="43.7221997678752" lon="10.770542890349969"><ele>17.0</ele><time>2026-04-28T08:16:18Z</time></trkpt><trkpt lat="43.72206647242066" lon="10.77066641257164"><ele>17.0</ele><time>2026-04-28T08:16:19Z</time></trkpt><trkpt lat="43.721931672162235" lon="10.770790559303656"><ele>17.25</ele><time>2026-04-28T08:16:20Z</time></trkpt><trkpt lat="43.72180322120874" lon="10.77090818983244"><ele>17.5</ele><time>2026-04-28T08:16:21Z</time></trkpt><trkpt lat="43.721685325411656" lon="10.771012209313556"><ele>17.75</ele><time>2026-04-28T08:16:22Z</time></trkpt><trkpt lat="43.72156538319712" lon="10.771120214537607"><ele>18.0</ele><time>2026-04-28T08:16:23Z</time></trkpt><trkpt lat="43.7214323605804" lon="10.771242642521957"><ele>18.333333333333332</ele><time>2026-04-28T08:16:24Z</time></trkpt><trkpt lat="43.72129489143329" lon="10.771371746475209"><ele>18.666666666666664</ele><time>2026-04-28T08:16:25Z</time></trkpt><trkpt lat="43.72115626413356" lon="10.771502404118461"><ele>19.0</ele><time>2026-04-28T08:16:26Z</time></trkpt><trkpt lat="43.72103122163057" lon="10.771623445267725"><ele>19.0</ele><time>2026-04-28T08:16:27Z</time></trkpt><trkpt lat="43.720915645919874" lon="10.771737390314886"><ele>19.0</ele><time>2026-04-28T08:16:28Z</time></trkpt><trkpt lat="43.72080583941272" lon="10.77184726357948"><ele>19.0</ele><time>2026-04-28T08:16:29Z</time></trkpt><trkpt lat="43.720692644235896" lon="10.771953905747559"><ele>19.0</ele><time>2026-04-28T08:16:30Z</time></trkpt><trkpt lat="43.72056955293177" lon="10.772065556300028"><ele>18.75</ele><time>2026-04-28T08:16:31Z</time></trkpt><trkpt lat="43.720438325092964" lon="10.77217608181182"><ele>18.5</ele><time>2026-04-28T08:16:32Z</time></trkpt><trkpt lat="43.72030890890305" lon="10.772279963214427"><ele>18.25</ele><time>2026-04-28T08:16:33Z</time></trkpt><trkpt lat="43.72019032483641" lon="10.77238374981859"><ele>18.0</ele><time>2026-04-28T08:16:34Z</time></trkpt><trkpt lat="43.7200808852888" lon="10.772486337042237"><ele>18.0</ele><time>2026-04-28T08:16:35Z</time></trkpt><trkpt lat="43.719973241101236" lon="10.772581976689754"><ele>18.0</ele><time>2026-04-28T08:16:36Z</time></trkpt><trkpt lat="43.71987354717411" lon="10.772671236703964"><ele>18.0</ele><time>2026-04-28T08:16:37Z</time></trkpt><trkpt lat="43.719784500502726" lon="10.772747525209454"><ele>18.0</ele><time>2026-04-28T08:16:38Z</time></trkpt><trkpt lat="43.719706993419386" lon="10.77282127669828"><ele>18.0</ele><time>2026-04-28T08:16:39Z</time></trkpt><trkpt lat="43.71963975396523" lon="10.772883472406427"><ele>17.857142857142858</ele><time>2026-04-28T08:16:40Z</time></trkpt><trkpt lat="43.719577567962254" lon="10.772922810486342"><ele>17.714285714285715</ele><time>2026-04-28T08:16:41Z</time></trkpt><trkpt lat="43.719513656737675" lon="10.772930357499504"><ele>17.57142857142857</ele><time>2026-04-28T08:16:42Z</time></trkpt><trkpt lat="43.719452251607585" lon="10.772909497563527"><ele>17.42857142857143</ele><time>2026-04-28T08:16:43Z</time></trkpt><trkpt lat="43.719386347533735" lon="10.772859505629366"><ele>17.285714285714285</ele><time>2026-04-28T08:16:44Z</time></trkpt><trkpt lat="43.71932344892748" lon="10.772809116500717"><ele>17.142857142857142</ele><time>2026-04-28T08:16:45Z</time></trkpt><trkpt lat="43.71925859768279" lon="10.772790189028273"><ele>17.0</ele><time>2026-04-28T08:16:46Z</time></trkpt><trkpt lat="43.719192568239386" lon="10.772821494187454"><ele>17.0</ele><time>2026-04-28T08:16:47Z</time></trkpt><trkpt lat="43.71914143140119" lon="10.772885080491383"><ele>17.0</ele><time>2026-04-28T08:16:48Z</time></trkpt><trkpt lat="43.719118647988886" lon="10.772969887276899"><ele>17.0</ele><time>2026-04-28T08:16:49Z</time></trkpt><trkpt lat="43.71912419963879" lon="10.77307072326081"><ele>17.0</ele><time>2026-04-28T08:16:50Z</time></trkpt><trkpt lat="43.719144558934396" lon="10.77316273441747"><ele>17.0</ele><time>2026-04-28T08:16:51Z</time></trkpt><trkpt lat="43.71918370978971" lon="10.773305644246825"><ele>17.0</ele><time>2026-04-28T08:16:53Z</time></trkpt><trkpt lat="43.71906972676173" lon="10.77340551589771"><ele>17.0</ele><time>2026-04-28T08:16:54Z</time></trkpt><trkpt lat="43.719003453357836" lon="10.773467000546363"><ele>17.0</ele><time>2026-04-28T08:16:55Z</time></trkpt><trkpt lat="43.71894176774227" lon="10.773514748932314"><ele>17.0</ele><time>2026-04-28T08:16:56Z</time></trkpt><trkpt lat="43.71887838267792" lon="10.773597020410723"><ele>17.0</ele><time>2026-04-28T08:16:58Z</time></trkpt><trkpt lat="43.71890476339171" lon="10.773753182396854"><ele>17.0</ele><time>2026-04-28T08:17:00Z</time></trkpt><trkpt lat="43.71895304347562" lon="10.773837373798361"><ele>17.0</ele><time>2026-04-28T08:17:01Z</time></trkpt><trkpt lat="43.719006773126594" lon="10.77392886197002"><ele>17.0</ele><time>2026-04-28T08:17:02Z</time></trkpt><trkpt lat="43.719049145570494" lon="10.774016905891369"><ele>17.0</ele><time>2026-04-28T08:17:03Z</time></trkpt><trkpt lat="43.71908556667578" lon="10.774093752785985"><ele>17.0</ele><time>2026-04-28T08:17:04Z</time></trkpt><trkpt lat="43.719137890701305" lon="10.774195742760734"><ele>17.0</ele><time>2026-04-28T08:17:06Z</time></trkpt><trkpt lat="43.7191892780821" lon="10.774301143040859"><ele>17.0</ele><time>2026-04-28T08:17:08Z</time></trkpt><trkpt lat="43.71925257149266" lon="10.774401894545369"><ele>17.0</ele><time>2026-04-28T08:17:10Z</time></trkpt><trkpt lat="43.71927942166001" lon="10.774493636892334"><ele>17.0</ele><time>2026-04-28T08:17:12Z</time></trkpt><trkpt lat="43.71932016492558" lon="10.774577888078134"><ele>17.0</ele><time>2026-04-28T08:17:14Z</time></trkpt><trkpt lat="43.719428673833406" lon="10.774573929760585"><ele>17.0</ele><time>2026-04-28T08:17:16Z</time></trkpt><trkpt lat="43.719462075723044" lon="10.774680048603024"><ele>17.0</ele><time>2026-04-28T08:19:40Z</time></trkpt><trkpt lat="43.71953622515338" lon="10.774703536283917"><ele>17.0</ele><time>2026-04-28T08:20:14Z</time></trkpt><trkpt lat="43.719584766264305" lon="10.774598558336056"><ele>17.0</ele><time>2026-04-28T08:20:18Z</time></trkpt><trkpt lat="43.7195317167015" lon="10.774482896032355"><ele>17.333333333333336</ele><time>2026-04-28T08:20:21Z</time></trkpt><trkpt lat="43.719590559863434" lon="10.774316065138821"><ele>17.666666666666668</ele><time>2026-04-28T08:20:24Z</time></trkpt><trkpt lat="43.71953667032859" lon="10.774170847373867"><ele>18.0</ele><time>2026-04-28T08:20:25Z</time></trkpt><trkpt lat="43.71936690100689" lon="10.774343831996958"><ele>17.8</ele><time>2026-04-28T08:20:31Z</time></trkpt><trkpt lat="43.71934928033565" lon="10.774442312447542"><ele>17.6</ele><time>2026-04-28T08:20:35Z</time></trkpt><trkpt lat="43.719465429935575" lon="10.774416178474924"><ele>17.4</ele><time>2026-04-28T08:21:00Z</time></trkpt><trkpt lat="43.71932752795693" lon="10.774478752794987"><ele>17.2</ele><time>2026-04-28T08:21:22Z</time></trkpt><trkpt lat="43.719421355528866" lon="10.774424479729905"><ele>17.0</ele><time>2026-04-28T08:21:32Z</time></trkpt><trkpt lat="43.719492693901145" lon="10.774509675302328"><ele>15.0</ele><time>2026-04-28T08:22:05Z</time></trkpt><trkpt lat="43.71943221833109" lon="10.774431777987504"><ele>15.0</ele><time>2026-04-28T08:22:07Z</time></trkpt></trkseg></trk></gpx>